SK9127 / SE-REX 7700 Squawk Report (18th of November, 2018)

Aircraft B737 Reg No. SE-REX Age 16 years old
Model 737 Jet engines 2 First flight 01-10-02
Registered 14-11-12 Rollout 22-09-02 Delivered 08-11-02
Construction No. 33418 Line No. 1226 Series 76N
ADSHEX 4AC8B8 Airline name SAS Scandinavian Airlines Owner Celestial Aviation Trading Ltd
Airfield based Stockholm-Arlanda~Stockholm~SE First tracked 2012-11-22 05:51:01

Flight history for SE-REX

Route Flight No Date Playback
Gardermoen (OSL) - Frankfurt Main (FRA) SK4755 2018-12-16 10:31:00
Vaernes (TRD) - Gardermoen (OSL) SK379 2018-12-15 19:19:00
Gardermoen (OSL) - Vaernes (TRD) SK366 2018-12-15 18:53:00
Flesland (BGO) - Gardermoen (OSL) SK274 2018-12-15 15:48:00
Gardermoen (OSL) - Flesland (BGO) SK269 2018-12-15 15:27:00
Manchester (MAN) - Gardermoen (OSL) SK4608 2018-12-15 12:53:00
Gardermoen (OSL) - Manchester (MAN) SK4609 2018-12-15 10:16:00
Hoybuktmoen (KKN) - Gardermoen (OSL) SK4479 2018-12-15 08:24:00
Gardermoen (OSL) - Hoybuktmoen (KKN) SK4478 2018-12-14 19:26:00
Vigra (AES) - Gardermoen (OSL) SK1323 2018-12-14 17:30:00
Gardermoen (OSL) - Vigra (AES) SK1322 2018-12-14 15:50:00
Sola (SVG) - Gardermoen (OSL) SK4028 2018-12-14 14:20:00
Gardermoen (OSL) - Sola (SVG) SK4027 2018-12-14 12:01:00
Vigra (AES) - Gardermoen (OSL) SK1315 2018-12-14 10:38:00
Gardermoen (OSL) - Vigra (AES) SK1314 2018-12-14 08:10:00
Vigra (AES) - Gardermoen (OSL) SK1311 2018-12-14 07:53:00
Vaernes (TRD) - Flesland (BGO) - Sola (SVG) SK4175 2018-12-13 15:50:00
Langnes (TOS) - Bodo (BOO) - Vaernes (TRD) SK4577 2018-12-13 15:41:00
Vaernes (TRD) - Bodo (BOO) - Langnes (TOS) SK4556 2018-12-13 10:02:00
Langnes (TOS) - Bodo (BOO) - Vaernes (TRD) SK4561 2018-12-13 07:10:00
Time Lat Lon Altitude Heading Speed Vertical Rate
2018-11-18 21:08:23 GMT 49.548248 17.873528 4,475 46 184 -768
2018-11-18 21:08:13 GMT 49.543312 17.860874 4,625 67 183 -512
2018-11-18 21:08:04 GMT 49.541565 17.851049 4,700 76 185 -704
2018-11-18 21:07:49 GMT 49.538589 17.831461 4,875 77 187 -320
2018-11-18 21:07:43 GMT 49.537449 17.823387 4,900 77 188 0
2018-11-18 21:07:37 GMT 49.536377 17.816113 4,900 78 188 0
2018-11-18 21:07:32 GMT 49.535583 17.810324 4,900 78 189 -320
2018-11-18 21:07:28 GMT 49.534840 17.804531 4,950 78 189 -768
2018-11-18 21:07:21 GMT 49.533691 17.795828 5,025 78 189 -768
2018-11-18 21:07:12 GMT 49.532326 17.783895 5,125 80 190 -512
2018-11-18 21:06:54 GMT 49.531998 17.757954 5,350 90 193 -832
2018-11-18 21:06:49 GMT 49.532745 17.751604 5,375 106 199 -704
2018-11-18 21:06:40 GMT 49.535866 17.739506 5,500 117 199 -896
2018-11-18 21:06:33 GMT 49.538750 17.730894 5,600 117 200 -832
2018-11-18 21:06:30 GMT 49.539776 17.727852 5,650 116 199 -960
2018-11-18 21:06:25 GMT 49.542103 17.720798 5,725 116 199 -960
2018-11-18 21:06:20 GMT 49.544037 17.715019 5,800 117 198 -1024
2018-11-18 21:06:16 GMT 49.546059 17.709368 5,900 120 197 -1088
2018-11-18 21:06:05 GMT 49.551910 17.698252 6,000 138 199 0
2018-11-18 21:05:59 GMT 49.556812 17.692665 6,000 154 205 0
2018-11-18 21:05:55 GMT 49.560211 17.690067 6,000 157 205 0
2018-11-18 21:05:43 GMT 49.571663 17.687393 6,000 181 215 0
2018-11-18 21:05:35 GMT 49.579529 17.689993 6,000 204 222 -64
2018-11-18 21:05:27 GMT 49.586418 17.695635 6,000 219 231 -192
2018-11-18 21:05:18 GMT 49.593246 17.705696 6,000 231 230 0
2018-11-18 21:05:15 GMT 49.595497 17.710110 6,000 233 232 0
2018-11-18 21:05:04 GMT 49.602859 17.724632 6,000 232 237 0
2018-11-18 21:04:58 GMT 49.606808 17.732452 5,975 232 244 64
2018-11-18 21:04:53 GMT 49.610161 17.738985 5,975 232 246 256
2018-11-18 21:04:48 GMT 49.613884 17.746185 5,975 232 251 -384
2018-11-18 21:04:43 GMT 49.617378 17.752941 6,025 232 251 -384
2018-11-18 21:04:38 GMT 49.621262 17.760410 6,050 232 249 -448
2018-11-18 21:04:34 GMT 49.624466 17.766556 6,075 232 250 -384
2018-11-18 21:04:23 GMT 49.632133 17.781372 6,150 232 252 -320
2018-11-18 21:04:13 GMT 49.639297 17.795250 6,225 232 257 -512
2018-11-18 21:04:03 GMT 49.647125 17.810211 6,325 232 262 -448
2018-11-18 21:03:51 GMT 49.655922 17.827024 6,400 232 270 -448
2018-11-18 21:03:42 GMT 49.663231 17.840906 6,525 231 274 -1280
2018-11-18 21:03:24 GMT 49.678848 17.870419 7,025 231 273 -1920
2018-11-18 21:03:17 GMT 49.683155 17.878542 7,225 231 272 -1792
2018-11-18 21:03:13 GMT 49.691528 17.894487 7,475 231 271 -1728
2018-11-18 21:03:07 GMT 49.691528 17.894487 7,525 232 271 -1792
2018-11-18 21:03:01 GMT 49.697159 17.905331 7,725 232 270 -1536
2018-11-18 21:02:56 GMT 49.700409 17.911257 7,825 229 270 -1280
2018-11-18 21:02:53 GMT 49.702942 17.915436 7,925 222 269 -1600
2018-11-18 21:02:50 GMT 49.705353 17.918846 7,975 222 269 -1600
2018-11-18 21:02:46 GMT 49.709244 17.923616 8,075 217 269 -1472
2018-11-18 21:02:41 GMT 49.714462 17.929470 8,200 217 269 -1600
2018-11-18 21:02:35 GMT 49.720257 17.936146 8,350 217 269 -1344
2018-11-18 21:02:32 GMT 49.723251 17.939590 8,425 218 269 -1344
2018-11-18 21:02:29 GMT 49.726410 17.943205 8,500 216 269 -1536
2018-11-18 21:02:25 GMT 49.730312 17.947355 8,600 213 268 -1472
2018-11-18 21:02:21 GMT 49.735703 17.952093 8,725 207 268 -1216
2018-11-18 21:02:14 GMT 49.742020 17.956503 8,850 201 268 -1088
2018-11-18 21:02:10 GMT 49.746979 17.959084 8,900 199 269 -1024
2018-11-18 21:02:02 GMT 49.756195 17.962128 9,050 189 268 -1344
2018-11-18 21:01:59 GMT 49.760376 17.962791 9,125 186 269 -1152
2018-11-18 21:01:52 GMT 49.768890 17.963802 9,325 185 279 -640
2018-11-18 21:01:49 GMT 49.772629 17.964205 9,300 185 272 -704
2018-11-18 21:01:42 GMT 49.781708 17.965244 9,375 185 276 -448
2018-11-18 21:01:39 GMT 49.785553 17.965681 9,400 185 279 -640
2018-11-18 21:01:31 GMT 49.797070 17.967026 9,475 185 279 -640
2018-11-18 21:01:19 GMT 49.811829 17.968790 9,625 185 280 -1152
2018-11-18 21:01:10 GMT 49.823975 17.970367 9,875 185 277 -1728
2018-11-18 21:01:01 GMT 49.834728 17.971703 10,100 185 277 -1664
2018-11-18 21:00:58 GMT 49.838562 17.972187 10,200 185 277 -1600
2018-11-18 21:00:51 GMT 49.848602 17.973484 10,375 185 280 -1152
2018-11-18 21:00:48 GMT 49.851673 17.973856 10,450 186 286 -1344
2018-11-18 21:00:40 GMT 49.862103 17.975191 10,600 185 283 -1408
2018-11-18 21:00:37 GMT 49.866028 17.975729 10,675 185 284 -1408
2018-11-18 21:00:31 GMT 49.875229 17.976973 10,850 186 286 -1344
2018-11-18 21:00:28 GMT 49.877838 17.977345 10,900 185 287 -1344
2018-11-18 21:00:20 GMT 49.888229 17.978691 11,100 185 290 -1088
2018-11-18 21:00:17 GMT 49.892220 17.979200 11,100 185 290 -1088
2018-11-18 21:00:10 GMT 49.902191 17.980354 11,350 185 292 -1472
2018-11-18 21:00:06 GMT 49.906235 17.980833 11,375 185 293 -1536
2018-11-18 20:59:56 GMT 49.920338 17.982540 11,675 185 294 -1664
2018-11-18 20:59:46 GMT 49.934784 17.984184 11,975 185 295 -1984
2018-11-18 20:59:38 GMT 49.945385 17.985361 12,425 185 295 -1728
2018-11-18 20:59:35 GMT 49.948643 17.985733 12,425 185 295 -1728
2018-11-18 20:59:28 GMT 49.958725 17.986860 12,575 185 296 -1664
2018-11-18 20:59:25 GMT 49.962841 17.987291 12,625 185 296 -1664
2018-11-18 20:59:15 GMT 49.976528 17.988850 12,950 185 296 -2176
2018-11-18 20:59:05 GMT 49.991329 17.990559 13,275 185 297 -1408
2018-11-18 20:58:56 GMT 50.003483 17.991968 13,475 183 302 -1408
2018-11-18 20:58:53 GMT 50.006275 17.992191 13,525 182 302 -1408
2018-11-18 20:58:48 GMT 50.013535 17.992266 13,625 175 307 -1152
2018-11-18 20:58:44 GMT 50.021164 17.991558 13,750 174 307 -1216
2018-11-18 20:58:38 GMT 50.027939 17.990257 13,850 169 308 -1664
2018-11-18 20:58:35 GMT 50.033833 17.988552 14,050 167 309 -1792
2018-11-18 20:58:32 GMT 50.035767 17.987871 14,025 166 309 -1792
2018-11-18 20:58:25 GMT 50.045700 17.983463 14,175 162 312 -960
2018-11-18 20:58:22 GMT 50.050598 17.980717 14,250 159 313 -896
2018-11-18 20:58:15 GMT 50.061626 17.973263 14,350 155 320 -768
2018-11-18 20:58:12 GMT 50.062958 17.972332 14,375 155 322 -768
2018-11-18 20:58:04 GMT 50.074799 17.963984 14,475 155 330 -768
2018-11-18 20:58:01 GMT 50.078102 17.961607 14,500 155 332 -768
2018-11-18 20:57:55 GMT 50.087181 17.955149 14,800 155 342 -832
2018-11-18 20:57:52 GMT 50.092907 17.951065 14,650 155 344 -960
2018-11-18 20:57:47 GMT 50.098167 17.947355 14,700 155 348 -1344
2018-11-18 20:57:44 GMT 50.105198 17.942381 14,775 155 349 -1536
2018-11-18 20:57:40 GMT 50.108734 17.939857 14,900 155 352 -2112
2018-11-18 20:57:36 GMT 50.119396 17.932137 15,150 155 353 -2624
2018-11-18 20:57:33 GMT 50.119396 17.932137 15,300 155 354 -2560
2018-11-18 20:57:30 GMT 50.123585 17.929169 15,350 155 354 -2560
2018-11-18 20:57:26 GMT 50.134644 17.921230 15,600 155 358 -3072
2018-11-18 20:57:23 GMT 50.134644 17.921230 15,725 155 357 -2880
2018-11-18 20:57:20 GMT 50.138531 17.918478 15,800 155 356 -2880
2018-11-18 20:57:12 GMT 50.152912 17.908087 16,125 155 357 -2688
2018-11-18 20:57:08 GMT 50.156498 17.905487 16,375 155 357 -2816
2018-11-18 20:57:05 GMT 50.160686 17.902445 16,525 155 358 -3008
2018-11-18 20:57:02 GMT 50.165527 17.899031 16,675 155 358 -3072
2018-11-18 20:56:59 GMT 50.170975 17.895170 16,900 155 358 -3072
2018-11-18 20:56:56 GMT 50.176376 17.891235 17,050 155 358 -2944
2018-11-18 20:56:51 GMT 50.182426 17.886930 17,225 155 358 -2944
2018-11-18 20:56:48 GMT 50.186920 17.883718 17,425 155 358 -3072
2018-11-18 20:56:44 GMT 50.192963 17.879381 17,625 155 358 -2944
2018-11-18 20:56:41 GMT 50.202305 17.872677 17,875 155 360 -2624
2018-11-18 20:56:38 GMT 50.202305 17.872677 17,975 155 361 -2624
2018-11-18 20:56:34 GMT 50.208359 17.868298 18,100 155 361 -2816
2018-11-18 20:56:30 GMT 50.215988 17.862902 18,350 155 362 -3008
2018-11-18 20:56:26 GMT 50.220200 17.859795 18,425 155 362 -3008
2018-11-18 20:56:20 GMT 50.234207 17.849749 18,900 155 362 -2880
2018-11-18 20:56:17 GMT 50.234207 17.849749 19,050 155 362 -2944
2018-11-18 20:56:14 GMT 50.238754 17.846474 19,125 155 362 -3008
2018-11-18 20:56:11 GMT 50.247322 17.840385 19,350 155 362 -2816
2018-11-18 20:56:04 GMT 50.253113 17.836304 19,700 155 365 -2752
2018-11-18 20:56:00 GMT 50.260483 17.831026 19,800 155 365 -2688
2018-11-18 20:55:57 GMT 50.265709 17.827248 19,950 155 366 -2560
2018-11-18 20:55:53 GMT 50.270645 17.823759 20,025 155 366 -2624
2018-11-18 20:55:49 GMT 50.278652 17.817968 20,350 155 367 -2880
2018-11-18 20:55:43 GMT 50.286987 17.812017 20,550 155 368 -2944
2018-11-18 20:55:40 GMT 50.293167 17.807537 20,800 155 368 -2752
2018-11-18 20:55:34 GMT 50.300297 17.802454 21,200 155 368 -3136
2018-11-18 20:55:29 GMT 50.308685 17.796406 21,300 155 368 -3328
2018-11-18 20:55:23 GMT 50.316696 17.790625 21,675 155 368 -2496
2018-11-18 20:55:20 GMT 50.322281 17.786648 21,725 155 368 -2624
2018-11-18 20:55:16 GMT 50.329391 17.781446 21,975 155 370 -2624
2018-11-18 20:55:13 GMT 50.332169 17.779493 22,150 155 370 -2624
2018-11-18 20:55:10 GMT 50.337753 17.775446 22,225 155 370 -2560
2018-11-18 20:55:07 GMT 50.340866 17.773205 22,300 155 370 -2496
2018-11-18 20:55:04 GMT 50.347733 17.768217 22,450 155 381 -2048
2018-11-18 20:55:00 GMT 50.353409 17.764170 22,575 155 374 -2176
2018-11-18 20:54:57 GMT 50.357162 17.761496 22,700 155 376 -2560
2018-11-18 20:54:53 GMT 50.364761 17.756075 22,900 155 377 -2112
2018-11-18 20:54:49 GMT 50.370174 17.752199 22,950 155 379 -1920
2018-11-18 20:54:46 GMT 50.373989 17.749453 23,100 155 380 -1920
2018-11-18 20:54:42 GMT 50.380737 17.744581 23,250 155 382 -2368
2018-11-18 20:54:38 GMT 50.386841 17.740173 23,425 155 384 -2368
2018-11-18 20:54:35 GMT 50.394611 17.734606 23,475 155 385 -1856
2018-11-18 20:54:31 GMT 50.399826 17.730820 23,625 155 390 -1280
2018-11-18 20:54:27 GMT 50.405693 17.726515 23,725 154 390 -2112
2018-11-18 20:54:24 GMT 50.410954 17.722654 23,850 155 390 -2240
2018-11-18 20:54:21 GMT 50.417469 17.717903 24,075 154 391 -1600
2018-11-18 20:54:18 GMT 50.427658 17.710466 24,100 155 392 -1728
2018-11-18 20:54:14 GMT 50.427658 17.710466 24,150 155 392 -1920
2018-11-18 20:54:11 GMT 50.432236 17.707142 24,300 155 393 -1792
2018-11-18 20:54:08 GMT 50.442123 17.699915 24,400 155 393 -1536
2018-11-18 20:54:05 GMT 50.447124 17.696377 24,475 155 394 -1728
2018-11-18 20:54:02 GMT 50.453083 17.692072 24,650 154 395 -1856
2018-11-18 20:53:58 GMT 50.453083 17.692072 24,675 154 395 -1856
2018-11-18 20:53:55 GMT 50.463650 17.684351 24,875 154 395 -1728
2018-11-18 20:53:49 GMT 50.467934 17.681158 24,950 155 394 -1472
2018-11-18 20:53:46 GMT 50.473938 17.676857 25,025 155 395 -1024
2018-11-18 20:53:43 GMT 50.477234 17.674473 25,050 155 395 -1024
2018-11-18 20:53:40 GMT 50.483231 17.670063 25,075 155 396 -1024
2018-11-18 20:53:37 GMT 50.487579 17.666981 25,150 155 397 -1024
2018-11-18 20:53:34 GMT 50.494236 17.662081 25,300 155 400 -1088
2018-11-18 20:53:28 GMT 50.503281 17.655462 25,350 155 402 -960
2018-11-18 20:53:25 GMT 50.508682 17.651560 25,375 154 403 -1088
2018-11-18 20:53:22 GMT 50.514084 17.647585 25,425 155 404 -1088
2018-11-18 20:53:19 GMT 50.522633 17.641371 25,525 155 408 -1088
2018-11-18 20:53:13 GMT 50.529476 17.636396 25,625 155 410 -1024
2018-11-18 20:53:10 GMT 50.532871 17.633873 25,650 154 411 -1088
2018-11-18 20:53:07 GMT 50.539444 17.629082 25,725 154 411 -1088
2018-11-18 20:53:04 GMT 50.543907 17.625856 25,750 155 411 -960
2018-11-18 20:53:01 GMT 50.554287 17.618284 25,825 155 414 -896
2018-11-18 20:52:58 GMT 50.554287 17.618284 25,875 155 414 -960
2018-11-18 20:52:55 GMT 50.561222 17.613237 25,900 154 413 -896
2018-11-18 20:52:52 GMT 50.566113 17.609674 25,950 155 413 -960
2018-11-18 20:52:48 GMT 50.573002 17.604626 26,000 155 412 -896
2018-11-18 20:52:44 GMT 50.578903 17.600313 26,050 155 411 -960
2018-11-18 20:52:41 GMT 50.584080 17.596535 26,100 155 411 -960
2018-11-18 20:52:37 GMT 50.591309 17.591280 26,175 155 410 -960
2018-11-18 20:52:34 GMT 50.604355 17.581812 26,350 155 407 -960
2018-11-18 20:52:30 GMT 50.604355 17.581812 26,300 155 408 -896
2018-11-18 20:52:27 GMT 50.608475 17.578848 26,325 155 407 -960
2018-11-18 20:52:23 GMT 50.614944 17.574116 26,400 155 407 -896
2018-11-18 20:52:20 GMT 50.622440 17.568623 26,475 155 407 -896
2018-11-18 20:52:16 GMT 50.628250 17.564392 26,525 155 406 -960
2018-11-18 20:52:13 GMT 50.632324 17.561428 26,650 155 406 -1024
2018-11-18 20:52:09 GMT 50.639191 17.556440 26,625 155 407 -1024
2018-11-18 20:52:05 GMT 50.646698 17.550947 26,775 155 408 -960
2018-11-18 20:52:02 GMT 50.650131 17.548491 26,800 155 408 -960
2018-11-18 20:51:58 GMT 50.656952 17.543505 26,825 155 408 -1024
2018-11-18 20:51:55 GMT 50.669312 17.534470 26,875 155 409 -960
2018-11-18 20:51:52 GMT 50.669312 17.534470 26,925 154 410 -896
2018-11-18 20:51:48 GMT 50.674805 17.530394 26,975 154 412 -960
2018-11-18 20:51:45 GMT 50.679977 17.526627 27,025 155 412 -896
2018-11-18 20:51:42 GMT 50.685883 17.522303 27,125 154 416 -896
2018-11-18 20:51:37 GMT 50.693153 17.516937 27,175 154 416 -896
2018-11-18 20:51:34 GMT 50.700787 17.511368 27,200 154 416 -960
2018-11-18 20:51:31 GMT 50.703232 17.509535 27,225 154 416 -896
2018-11-18 20:51:27 GMT 50.711262 17.503662 27,300 155 416 -896
2018-11-18 20:51:24 GMT 50.716507 17.499809 27,350 154 416 -1024
2018-11-18 20:51:21 GMT 50.721359 17.496246 27,425 154 415 -1024
2018-11-18 20:51:18 GMT 50.727276 17.491837 27,475 154 415 -1024
2018-11-18 20:51:15 GMT 50.733170 17.487488 27,525 154 416 -960
2018-11-18 20:51:12 GMT 50.739101 17.483139 27,575 154 416 -960
2018-11-18 20:51:06 GMT 50.746735 17.477493 27,650 154 416 -960
2018-11-18 20:51:03 GMT 50.753357 17.472641 27,675 154 416 -960
2018-11-18 20:51:00 GMT 50.757908 17.469254 27,900 154 416 -1024
2018-11-18 20:50:57 GMT 50.769077 17.461014 27,825 154 418 -896
2018-11-18 20:50:54 GMT 50.769077 17.461014 27,850 154 418 -896
2018-11-18 20:50:51 GMT 50.775009 17.456608 27,900 154 419 -960
2018-11-18 20:50:48 GMT 50.778534 17.454008 27,950 154 420 -960
2018-11-18 20:50:45 GMT 50.784489 17.449646 27,975 154 420 -960
2018-11-18 20:50:42 GMT 50.788723 17.446518 28,000 154 420 -960
2018-11-18 20:50:39 GMT 50.796799 17.440498 28,075 154 421 -1024
2018-11-18 20:50:36 GMT 50.806370 17.433472 28,175 154 423 -960
2018-11-18 20:50:32 GMT 50.806370 17.433472 28,250 154 424 -960
2018-11-18 20:50:29 GMT 50.812744 17.428741 28,250 154 424 -960
2018-11-18 20:50:26 GMT 50.818771 17.424242 28,300 154 425 -960
2018-11-18 20:50:23 GMT 50.827641 17.417755 28,375 155 424 -960
2018-11-18 20:50:17 GMT 50.836163 17.411499 28,425 155 423 -960
2018-11-18 20:50:14 GMT 50.838638 17.409693 28,550 155 422 -960
2018-11-18 20:50:11 GMT 50.846077 17.404251 28,525 155 423 -960
2018-11-18 20:50:08 GMT 50.849991 17.401379 28,575 155 422 -960
2018-11-18 20:50:04 GMT 50.858135 17.395401 28,650 155 424 -960
2018-11-18 20:50:00 GMT 50.868393 17.387869 28,925 155 423 -960
2018-11-18 20:49:54 GMT 50.874802 17.383192 28,875 155 424 -960
2018-11-18 20:49:51 GMT 50.880154 17.379303 29,375 154 420 -960
2018-11-18 20:49:48 GMT 50.887230 17.374115 29,150 155 424 -960
2018-11-18 20:49:44 GMT 50.892956 17.369919 28,975 155 425 -1024
2018-11-18 20:49:40 GMT 50.904694 17.361368 29,075 155 426 -960
2018-11-18 20:49:37 GMT 50.911148 17.356617 29,150 155 426 -960
2018-11-18 20:49:34 GMT 50.911148 17.356617 29,150 155 427 -960
2018-11-18 20:49:31 GMT 50.916138 17.352980 29,275 154 428 -960
2018-11-18 20:49:27 GMT 50.929405 17.343140 29,375 154 428 -896
2018-11-18 20:49:24 GMT 50.929405 17.343140 29,300 154 428 -960
2018-11-18 20:49:19 GMT 50.938717 17.336197 29,400 154 429 -960
2018-11-18 20:49:16 GMT 50.943047 17.332993 29,550 154 428 -960
2018-11-18 20:49:13 GMT 50.948074 17.329254 29,475 154 428 -960
2018-11-18 20:49:10 GMT 50.960922 17.319565 29,550 154 428 -960
2018-11-18 20:49:06 GMT 50.960922 17.319565 29,575 154 427 -960
2018-11-18 20:49:03 GMT 50.966263 17.315567 29,625 154 426 -960
2018-11-18 20:49:00 GMT 50.976883 17.307550 30,975 154 422 -960
2018-11-18 20:48:57 GMT 50.981499 17.304077 29,750 154 420 -960
2018-11-18 20:48:51 GMT 50.986431 17.300339 29,800 154 423 -960
2018-11-18 20:48:48 GMT 50.992447 17.295820 29,825 154 422 -1024
2018-11-18 20:48:45 GMT 50.997696 17.291794 29,925 154 424 -960
2018-11-18 20:48:42 GMT 51.003330 17.287521 29,950 154 420 -960
2018-11-18 20:48:38 GMT 51.011757 17.281189 30,025 154 420 -960
2018-11-18 20:48:35 GMT 51.016644 17.277527 30,100 154 420 -960
2018-11-18 20:48:32 GMT 51.021927 17.273626 30,125 154 420 -960
2018-11-18 20:48:28 GMT 51.026512 17.270203 30,175 154 420 -1024
2018-11-18 20:48:25 GMT 51.033543 17.265015 30,625 155 420 -960
2018-11-18 20:48:22 GMT 51.038086 17.261600 30,275 155 421 -1024
2018-11-18 20:48:19 GMT 51.044109 17.257156 30,325 155 422 -960
2018-11-18 20:48:15 GMT 51.050442 17.252502 30,425 154 422 -960
2018-11-18 20:48:12 GMT 51.055756 17.248535 30,450 155 421 -960
2018-11-18 20:48:09 GMT 51.060013 17.245417 30,500 155 421 -960
2018-11-18 20:48:06 GMT 51.068481 17.239182 30,550 155 421 -960
2018-11-18 20:48:03 GMT 51.071671 17.236862 30,775 154 424 -960
2018-11-18 20:48:00 GMT 51.081161 17.229830 31,125 155 420 -960
2018-11-18 20:47:54 GMT 51.088211 17.224632 30,850 154 420 -1024
2018-11-18 20:47:51 GMT 51.092422 17.221516 30,775 154 419 -960
2018-11-18 20:47:48 GMT 51.099087 17.216568 30,850 154 420 -1024
2018-11-18 20:47:44 GMT 51.106476 17.211048 30,875 154 420 -1024
2018-11-18 20:47:41 GMT 51.109982 17.208481 30,925 154 420 -1024
2018-11-18 20:47:37 GMT 51.118778 17.201920 31,025 154 422 -960
2018-11-18 20:47:34 GMT 51.124100 17.197983 31,050 154 422 -960
2018-11-18 20:47:31 GMT 51.127625 17.195385 31,125 154 422 -1024
2018-11-18 20:47:28 GMT 51.135075 17.189865 31,225 154 423 -960
2018-11-18 20:47:24 GMT 51.141083 17.185364 31,225 154 424 -1024
2018-11-18 20:47:21 GMT 51.147827 17.180328 31,275 154 423 -960
2018-11-18 20:47:16 GMT 51.155602 17.174530 31,425 154 423 -960
2018-11-18 20:47:13 GMT 51.160904 17.170517 31,375 154 423 -960
2018-11-18 20:47:10 GMT 51.165115 17.167400 31,425 154 423 -960
2018-11-18 20:47:06 GMT 51.173992 17.160797 31,500 154 423 -960
2018-11-18 20:47:02 GMT 51.179260 17.156784 31,600 154 423 -1024
2018-11-18 20:46:59 GMT 51.183861 17.153397 31,650 154 421 -960
2018-11-18 20:46:56 GMT 51.191299 17.147802 31,650 154 422 -960
2018-11-18 20:46:52 GMT 51.197617 17.142977 31,750 154 422 -960
2018-11-18 20:46:49 GMT 51.202560 17.139265 31,825 154 421 -1024
2018-11-18 20:46:45 GMT 51.209232 17.134247 31,850 154 420 -1024
2018-11-18 20:46:42 GMT 51.214508 17.130209 31,900 154 420 -1024
2018-11-18 20:46:39 GMT 51.221512 17.124865 31,925 154 420 -960
2018-11-18 20:46:35 GMT 51.227478 17.120361 31,975 154 420 -960
2018-11-18 20:46:32 GMT 51.233414 17.115808 32,050 154 419 -960
2018-11-18 20:46:28 GMT 51.238998 17.111576 32,075 154 419 -960
2018-11-18 20:46:24 GMT 51.245956 17.106234 32,175 154 418 -896
2018-11-18 20:46:20 GMT 51.259186 17.096210 32,250 154 416 -960
2018-11-18 20:46:17 GMT 51.267841 17.089615 32,300 154 415 -1024
2018-11-18 20:46:12 GMT 51.267841 17.089615 32,350 154 416 -1024
2018-11-18 20:46:09 GMT 51.272030 17.086487 32,400 154 415 -1024
2018-11-18 20:46:06 GMT 51.276871 17.082825 32,450 154 415 -1024
2018-11-18 20:46:02 GMT 51.287998 17.074509 32,550 154 414 -1024
2018-11-18 20:45:59 GMT 51.289719 17.073198 32,575 154 414 -1024
2018-11-18 20:45:56 GMT 51.294571 17.069563 32,725 154 414 -1152
2018-11-18 20:45:53 GMT 51.299423 17.065926 32,650 154 414 -1088
2018-11-18 20:45:50 GMT 51.310455 17.057611 32,875 154 413 -1152
2018-11-18 20:45:47 GMT 51.310455 17.057611 32,775 154 413 -1152
2018-11-18 20:45:43 GMT 51.316681 17.053007 32,975 154 414 -1152
2018-11-18 20:45:40 GMT 51.322906 17.048332 32,950 154 414 -896
2018-11-18 20:45:37 GMT 51.327427 17.044907 33,000 154 415 64
2018-11-18 20:45:33 GMT 51.335014 17.039185 33,000 154 415 0
2018-11-18 20:45:27 GMT 51.345062 17.031555 33,000 154 415 0
2018-11-18 20:45:24 GMT 51.350239 17.027664 33,000 154 414 0
2018-11-18 20:45:21 GMT 51.354382 17.024460 33,000 154 414 0
2018-11-18 20:45:18 GMT 51.359921 17.020264 33,000 154 414 0
2018-11-18 20:45:15 GMT 51.364426 17.016932 33,000 154 414 0
2018-11-18 20:45:11 GMT 51.371338 17.011662 33,000 154 413 -128
2018-11-18 20:45:08 GMT 51.384430 17.001715 33,000 154 413 -128
2018-11-18 20:45:02 GMT 51.388596 16.998596 33,000 154 412 0
2018-11-18 20:44:58 GMT 51.394775 16.993919 33,000 154 412 64
2018-11-18 20:44:55 GMT 51.400608 16.989517 33,000 154 412 64
2018-11-18 20:44:52 GMT 51.406448 16.985012 33,000 154 411 -64
2018-11-18 20:44:49 GMT 51.410942 16.981659 33,000 154 411 0
2018-11-18 20:44:46 GMT 51.416794 16.977217 33,000 154 411 -64
2018-11-18 20:44:43 GMT 51.421600 16.973579 33,000 154 411 0
2018-11-18 20:44:39 GMT 51.433960 16.964153 33,000 154 411 0
2018-11-18 20:44:36 GMT 51.433960 16.964153 33,000 154 411 0
2018-11-18 20:44:33 GMT 51.437710 16.961288 33,000 154 411 0
2018-11-18 20:44:30 GMT 51.441853 16.958084 33,000 154 411 0
2018-11-18 20:44:27 GMT 51.447998 16.953430 33,000 154 411 -64
2018-11-18 20:44:24 GMT 51.455200 16.947895 33,000 154 411 -64
2018-11-18 20:44:21 GMT 51.460007 16.944183 33,000 154 411 -64
2018-11-18 20:44:17 GMT 51.466827 16.938913 33,000 154 411 -64
2018-11-18 20:44:14 GMT 51.470619 16.936035 33,000 154 411 128
2018-11-18 20:44:10 GMT 51.477467 16.930771 33,000 154 411 -64
2018-11-18 20:44:06 GMT 51.483994 16.925776 33,000 154 412 0
2018-11-18 20:44:02 GMT 51.492233 16.919464 33,000 154 412 -128
2018-11-18 20:43:58 GMT 51.498737 16.914444 33,000 154 412 192
2018-11-18 20:43:55 GMT 51.501846 16.912043 33,000 154 412 64
2018-11-18 20:43:52 GMT 51.509075 16.906509 33,000 154 413 64
2018-11-18 20:43:49 GMT 51.513168 16.903381 32,975 154 413 -128
2018-11-18 20:43:46 GMT 51.517685 16.900017 33,000 154 413 -192
2018-11-18 20:43:43 GMT 51.525284 16.894300 33,000 154 413 0
2018-11-18 20:43:37 GMT 51.534256 16.887470 33,000 154 415 -64
2018-11-18 20:43:34 GMT 51.539749 16.883314 33,000 154 415 -64
2018-11-18 20:43:31 GMT 51.543915 16.880121 33,000 154 413 0
2018-11-18 20:43:28 GMT 51.549107 16.876221 33,000 154 413 -64
2018-11-18 20:43:25 GMT 51.556000 16.870956 33,000 154 415 -64
2018-11-18 20:43:21 GMT 51.560841 16.867294 33,000 154 415 -64
2018-11-18 20:43:18 GMT 51.567078 16.862488 33,000 154 415 64
2018-11-18 20:43:11 GMT 51.578476 16.853844 33,000 154 415 0
2018-11-18 20:43:08 GMT 51.584396 16.849289 33,000 154 415 -128
2018-11-18 20:43:05 GMT 51.590973 16.844269 33,000 154 415 -64
2018-11-18 20:43:02 GMT 51.596172 16.840286 33,000 154 416 0
2018-11-18 20:42:59 GMT 51.600315 16.837082 33,000 154 416 0
2018-11-18 20:42:56 GMT 51.605858 16.832886 33,000 154 416 -64
2018-11-18 20:42:53 GMT 51.609695 16.829941 33,000 154 416 -64
2018-11-18 20:42:49 GMT 51.618378 16.823273 33,000 154 416 0
2018-11-18 20:42:44 GMT 51.627731 16.816059 33,000 154 416 0
2018-11-18 20:42:40 GMT 51.640583 16.806259 33,000 154 416 64
2018-11-18 20:42:35 GMT 51.640583 16.806259 33,000 154 417 0
2018-11-18 20:42:32 GMT 51.646500 16.801733 33,000 154 417 0
2018-11-18 20:42:29 GMT 51.650665 16.798468 33,000 154 417 0
2018-11-18 20:42:25 GMT 51.660740 16.790771 33,000 154 417 0
2018-11-18 20:42:22 GMT 51.666000 16.786737 33,000 154 418 0
2018-11-18 20:42:19 GMT 51.669479 16.784065 33,000 154 418 64
2018-11-18 20:42:13 GMT 51.679916 16.775974 33,000 154 419 64
2018-11-18 20:42:09 GMT 51.686874 16.770630 33,000 154 420 -64
2018-11-18 20:42:06 GMT 51.693192 16.765732 33,000 154 420 -64
2018-11-18 20:42:03 GMT 51.696354 16.763306 33,000 154 420 -64
2018-11-18 20:42:00 GMT 51.703720 16.757713 33,000 154 420 -64
2018-11-18 20:41:57 GMT 51.709667 16.753082 33,000 154 421 0
2018-11-18 20:41:53 GMT 51.716698 16.747665 33,000 154 422 0
2018-11-18 20:41:48 GMT 51.723404 16.742571 33,000 154 424 0
2018-11-18 20:41:42 GMT 51.732944 16.735229 33,000 154 425 -128
2018-11-18 20:41:39 GMT 51.740719 16.729202 33,000 154 425 -128
2018-11-18 20:41:36 GMT 51.745701 16.725388 33,000 154 426 0
2018-11-18 20:41:33 GMT 51.751007 16.721266 33,000 154 426 0
2018-11-18 20:41:30 GMT 51.755264 16.717999 33,000 154 426 0
2018-11-18 20:41:27 GMT 51.760254 16.714140 33,000 154 427 0
2018-11-18 20:41:24 GMT 51.768036 16.708126 33,000 154 426 0
2018-11-18 20:41:21 GMT 51.772293 16.704786 33,000 154 427 0
2018-11-18 20:41:18 GMT 51.776237 16.701813 33,000 154 426 0
2018-11-18 20:41:15 GMT 51.782616 16.696854 33,000 154 426 0
2018-11-18 20:41:12 GMT 51.792576 16.689148 33,000 154 427 0
2018-11-18 20:41:09 GMT 51.798954 16.684189 33,000 154 426 -64
2018-11-18 20:41:06 GMT 51.798954 16.684189 33,000 154 426 -64
2018-11-18 20:41:02 GMT 51.805710 16.679028 33,000 154 426 0
2018-11-18 20:40:58 GMT 51.811058 16.674881 33,000 154 426 0
2018-11-18 20:40:55 GMT 51.819576 16.668320 33,000 154 426 0
2018-11-18 20:40:51 GMT 51.824203 16.664776 33,000 154 426 0
2018-11-18 20:40:48 GMT 51.829540 16.660614 33,000 154 426 0
2018-11-18 20:40:45 GMT 51.835220 16.656265 33,000 154 426 0
2018-11-18 20:40:41 GMT 51.843739 16.649628 33,000 154 426 0
2018-11-18 20:40:38 GMT 51.849060 16.645550 33,000 154 426 0
2018-11-18 20:40:34 GMT 51.856155 16.639982 33,000 154 426 64
2018-11-18 20:40:31 GMT 51.859379 16.637573 33,000 154 426 0
2018-11-18 20:40:28 GMT 51.865013 16.633148 33,000 154 426 -64
2018-11-18 20:40:25 GMT 51.872833 16.627045 33,000 154 426 -64
2018-11-18 20:40:21 GMT 51.877441 16.623503 33,000 154 426 0
2018-11-18 20:40:18 GMT 51.891968 16.612167 33,000 154 425 -64
2018-11-18 20:40:13 GMT 51.891968 16.612167 33,000 154 425 -64
2018-11-18 20:40:10 GMT 51.897995 16.607437 33,000 154 425 0
2018-11-18 20:40:07 GMT 51.902580 16.603872 33,000 154 425 0
2018-11-18 20:40:03 GMT 51.910721 16.597519 33,000 154 424 -64
2018-11-18 20:40:00 GMT 51.916733 16.592888 33,000 154 424 -64
2018-11-18 20:39:57 GMT 51.922737 16.588179 33,000 154 424 -64
2018-11-18 20:39:53 GMT 51.927299 16.584646 33,000 154 424 -64
2018-11-18 20:39:50 GMT 51.935074 16.578606 33,000 154 424 64
2018-11-18 20:39:47 GMT 51.939262 16.575310 33,000 154 424 128
2018-11-18 20:39:43 GMT 51.945282 16.570587 33,000 154 423 128
2018-11-18 20:39:40 GMT 51.951275 16.565969 33,000 154 422 -256
2018-11-18 20:39:37 GMT 51.956905 16.561577 33,000 154 422 -128
2018-11-18 20:39:34 GMT 51.962540 16.557180 33,025 154 422 -64
2018-11-18 20:39:31 GMT 51.967804 16.553040 33,000 154 422 64
2018-11-18 20:39:28 GMT 51.970596 16.550903 33,000 154 422 64
2018-11-18 20:39:25 GMT 51.976227 16.546478 33,000 154 422 0
2018-11-18 20:39:22 GMT 51.982231 16.541880 33,000 154 421 0
2018-11-18 20:39:19 GMT 51.987816 16.537483 33,000 154 421 -64
2018-11-18 20:39:16 GMT 51.992386 16.533890 33,000 154 421 -64
2018-11-18 20:39:13 GMT 51.998337 16.529324 33,000 154 421 0
2018-11-18 20:39:07 GMT 52.010254 16.519985 33,000 154 421 0
2018-11-18 20:39:03 GMT 52.015190 16.516218 33,000 154 419 -128
2018-11-18 20:38:59 GMT 52.022171 16.510725 33,000 154 420 -64
2018-11-18 20:38:55 GMT 52.028503 16.505859 33,000 154 420 -64
2018-11-18 20:38:52 GMT 52.035484 16.500366 33,000 154 420 0
2018-11-18 20:38:49 GMT 52.038979 16.497698 33,000 154 420 0
2018-11-18 20:38:46 GMT 52.045624 16.492462 33,000 154 419 0
2018-11-18 20:38:43 GMT 52.051208 16.488113 33,000 154 419 0
2018-11-18 20:38:40 GMT 52.054688 16.485367 33,000 154 419 -128
2018-11-18 20:38:36 GMT 52.061321 16.480198 33,000 154 419 -64
2018-11-18 20:38:32 GMT 52.068649 16.474457 33,000 154 418 -64
2018-11-18 20:38:29 GMT 52.074543 16.469839 33,000 154 418 -64
2018-11-18 20:38:26 GMT 52.080132 16.465445 33,000 154 418 -64
2018-11-18 20:38:23 GMT 52.085312 16.461411 33,000 154 417 0
2018-11-18 20:38:20 GMT 52.091255 16.456736 33,000 154 417 64
2018-11-18 20:38:16 GMT 52.098495 16.451035 33,000 154 417 64
2018-11-18 20:38:13 GMT 52.107513 16.443939 33,000 154 416 -64
2018-11-18 20:38:07 GMT 52.119606 16.434370 33,000 154 416 -64
2018-11-18 20:38:03 GMT 52.119606 16.434370 33,000 154 415 0
2018-11-18 20:38:00 GMT 52.124817 16.430283 33,000 154 415 0
2018-11-18 20:37:57 GMT 52.129288 16.426758 33,000 154 415 0
2018-11-18 20:37:54 GMT 52.134129 16.422913 33,000 154 415 0
2018-11-18 20:37:51 GMT 52.142418 16.416399 33,000 154 415 -64
2018-11-18 20:37:48 GMT 52.146240 16.413345 33,000 154 415 0
2018-11-18 20:37:45 GMT 52.151402 16.409258 33,000 154 415 -64
2018-11-18 20:37:42 GMT 52.155544 16.406040 33,000 154 415 -64
2018-11-18 20:37:39 GMT 52.161736 16.401096 33,000 154 415 -64
2018-11-18 20:37:36 GMT 52.167274 16.396702 33,000 154 415 -64
2018-11-18 20:37:32 GMT 52.173515 16.391836 33,000 154 415 -64
2018-11-18 20:37:29 GMT 52.177658 16.388540 33,000 154 415 -64
2018-11-18 20:37:26 GMT 52.183849 16.383596 33,000 154 415 0
2018-11-18 20:37:22 GMT 52.192474 16.376724 33,000 154 415 -64
2018-11-18 20:37:17 GMT 52.199387 16.371307 33,000 154 415 0
2018-11-18 20:37:14 GMT 52.203506 16.367950 33,000 154 415 0
2018-11-18 20:37:11 GMT 52.209732 16.363068 33,000 154 415 0
2018-11-18 20:37:08 GMT 52.216644 16.357574 33,000 154 415 0
2018-11-18 20:37:05 GMT 52.221138 16.354013 33,000 154 415 0
2018-11-18 20:37:02 GMT 52.224583 16.351267 33,000 154 415 0
2018-11-18 20:36:59 GMT 52.237057 16.341457 33,000 154 416 0
2018-11-18 20:36:56 GMT 52.237057 16.341457 33,000 154 416 0
2018-11-18 20:36:52 GMT 52.247391 16.333218 33,000 154 415 -64
2018-11-18 20:36:45 GMT 52.255028 16.327175 33,000 154 416 0
2018-11-18 20:36:42 GMT 52.260910 16.322556 33,000 154 416 -64
2018-11-18 20:36:37 GMT 52.275742 16.310774 33,000 154 415 0
2018-11-18 20:36:34 GMT 52.275742 16.310774 33,000 154 416 -64
2018-11-18 20:36:31 GMT 52.278900 16.308289 33,000 154 416 -64
2018-11-18 20:36:28 GMT 52.283379 16.304731 33,000 154 416 -64
2018-11-18 20:36:25 GMT 52.289616 16.299866 33,000 154 416 -64
2018-11-18 20:36:22 GMT 52.293758 16.296570 33,000 154 416 -64
2018-11-18 20:36:19 GMT 52.300694 16.291155 33,000 154 415 -64
2018-11-18 20:36:16 GMT 52.304836 16.287859 33,000 154 415 0
2018-11-18 20:36:13 GMT 52.309029 16.284641 33,000 154 415 0
2018-11-18 20:36:10 GMT 52.315220 16.279776 33,000 154 415 0
2018-11-18 20:36:07 GMT 52.320061 16.275930 33,000 154 414 0
2018-11-18 20:36:03 GMT 52.332825 16.265869 33,000 154 414 0
2018-11-18 20:36:00 GMT 52.332825 16.265869 33,000 154 414 0
2018-11-18 20:35:55 GMT 52.340729 16.259609 33,000 154 413 0
2018-11-18 20:35:52 GMT 52.345524 16.255842 33,000 154 413 0
2018-11-18 20:35:49 GMT 52.350677 16.251755 33,000 154 413 0
2018-11-18 20:35:43 GMT 52.367542 16.238342 33,000 154 413 0
2018-11-18 20:35:37 GMT 52.374069 16.233139 33,000 154 413 0
2018-11-18 20:35:32 GMT 52.380577 16.227983 33,000 154 413 0
2018-11-18 20:35:29 GMT 52.386070 16.223589 33,000 154 413 0
2018-11-18 20:35:24 GMT 52.394310 16.216997 33,000 153 414 0
2018-11-18 20:35:21 GMT 52.398453 16.213701 33,000 153 414 0
2018-11-18 20:35:18 GMT 52.404968 16.208496 33,000 153 414 0
2018-11-18 20:35:15 GMT 52.410137 16.204441 33,000 153 414 0
2018-11-18 20:35:12 GMT 52.421822 16.195103 33,000 153 414 0
2018-11-18 20:35:09 GMT 52.421822 16.195103 33,000 153 415 0
2018-11-18 20:35:06 GMT 52.430420 16.188202 33,000 153 415 0
2018-11-18 20:35:03 GMT 52.430420 16.188202 33,000 153 415 0
2018-11-18 20:34:59 GMT 52.442139 16.178818 33,000 153 415 0
2018-11-18 20:34:56 GMT 52.442139 16.178818 33,000 153 415 -64
2018-11-18 20:34:52 GMT 52.450378 16.172180 33,000 153 415 -64
2018-11-18 20:34:49 GMT 52.455185 16.168289 33,000 153 415 -64
2018-11-18 20:34:46 GMT 52.460369 16.164185 33,000 153 415 0
2018-11-18 20:34:42 GMT 52.466217 16.159439 33,000 153 416 -64
2018-11-18 20:34:38 GMT 52.473816 16.153336 33,000 153 416 -64
2018-11-18 20:34:35 GMT 52.479687 16.148647 33,000 153 416 0
2018-11-18 20:34:31 GMT 52.486267 16.143417 33,000 153 417 0
2018-11-18 20:34:27 GMT 52.499405 16.132889 33,000 153 417 -64
2018-11-18 20:34:24 GMT 52.499405 16.132889 33,000 154 418 0
2018-11-18 20:34:20 GMT 52.505989 16.127617 33,000 154 418 -64
2018-11-18 20:34:17 GMT 52.510483 16.124039 33,000 154 418 -64
2018-11-18 20:34:12 GMT 52.524750 16.112705 33,000 153 419 0
2018-11-18 20:34:09 GMT 52.524750 16.112705 33,000 154 418 -64
2018-11-18 20:34:05 GMT 52.529591 16.108782 33,000 154 418 0
2018-11-18 20:34:02 GMT 52.537228 16.102661 33,000 153 418 64
2018-11-18 20:33:58 GMT 52.541748 16.099091 33,000 153 419 64
2018-11-18 20:33:55 GMT 52.547974 16.094055 33,000 153 419 -64
2018-11-18 20:33:50 GMT 52.555988 16.087593 33,000 153 419 -128
2018-11-18 20:33:47 GMT 52.561203 16.083374 33,000 153 419 -64
2018-11-18 20:33:44 GMT 52.566055 16.079483 33,000 153 419 0
2018-11-18 20:33:41 GMT 52.573399 16.073626 33,000 153 419 0
2018-11-18 20:33:38 GMT 52.576843 16.070801 33,000 153 419 0
2018-11-18 20:33:35 GMT 52.584183 16.064911 33,000 153 419 -64
2018-11-18 20:33:29 GMT 52.593933 16.057053 33,000 153 420 0
2018-11-18 20:33:26 GMT 52.597412 16.054230 33,000 153 420 -64
2018-11-18 20:33:23 GMT 52.602997 16.049728 33,000 153 422 -64
2018-11-18 20:33:18 GMT 52.613850 16.041059 33,000 153 422 64
2018-11-18 20:33:15 GMT 52.618740 16.037058 33,000 153 422 64
2018-11-18 20:33:12 GMT 52.632053 16.026306 33,000 153 423 -64
2018-11-18 20:33:07 GMT 52.636288 16.022932 33,000 153 423 -64
2018-11-18 20:33:04 GMT 52.636288 16.022932 33,000 153 423 0
2018-11-18 20:32:58 GMT 52.646111 16.015005 33,000 153 423 -64
2018-11-18 20:32:55 GMT 52.651745 16.010454 33,000 153 424 0
2018-11-18 20:32:52 GMT 52.660172 16.003550 33,000 153 424 -64
2018-11-18 20:32:48 GMT 52.664017 16.000443 33,000 153 424 -64
2018-11-18 20:32:45 GMT 52.669647 15.995865 33,000 153 424 -64
2018-11-18 20:32:41 GMT 52.677025 15.989894 33,000 153 424 64
2018-11-18 20:32:36 GMT 52.686893 15.981890 33,000 153 425 64
2018-11-18 20:32:33 GMT 52.691826 15.977888 33,000 153 425 64
2018-11-18 20:32:28 GMT 52.699219 15.971909 33,000 153 425 64
2018-11-18 20:32:25 GMT 52.706631 15.965881 33,000 153 426 -64
2018-11-18 20:32:22 GMT 52.710167 15.963056 33,000 153 427 -64
2018-11-18 20:32:19 GMT 52.715469 15.958710 33,000 153 427 -64
2018-11-18 20:32:16 GMT 52.721832 15.953598 33,000 153 427 -64
2018-11-18 20:32:13 GMT 52.727158 15.949245 33,000 153 427 -64
2018-11-18 20:32:08 GMT 52.735680 15.942339 33,000 153 429 -64
2018-11-18 20:32:02 GMT 52.745640 15.934256 33,000 153 430 -64
2018-11-18 20:31:58 GMT 52.754162 15.927351 33,000 153 430 0
2018-11-18 20:31:53 GMT 52.762028 15.920994 33,000 153 431 0
2018-11-18 20:31:50 GMT 52.767754 15.916364 33,000 153 431 0
2018-11-18 20:31:45 GMT 52.778091 15.907974 33,000 153 431 -64
2018-11-18 20:31:41 GMT 52.784500 15.902710 33,000 153 431 -64
2018-11-18 20:31:37 GMT 52.790565 15.897845 33,000 153 431 0
2018-11-18 20:31:33 GMT 52.799515 15.890579 33,000 153 431 64
2018-11-18 20:31:24 GMT 52.813797 15.878983 33,000 153 432 -64
2018-11-18 20:31:20 GMT 52.822731 15.871713 33,000 153 431 0
2018-11-18 20:31:14 GMT 52.832043 15.864179 33,000 153 431 0
2018-11-18 20:31:09 GMT 52.842049 15.856018 33,000 153 431 0
2018-11-18 20:31:05 GMT 52.854153 15.846052 33,000 153 431 0
2018-11-18 20:31:01 GMT 52.854153 15.846052 33,000 153 432 -64
2018-11-18 20:30:57 GMT 52.861679 15.839920 33,000 153 432 -64
2018-11-18 20:30:53 GMT 52.869190 15.833810 33,000 153 432 0
2018-11-18 20:30:50 GMT 52.876312 15.827924 33,000 153 432 0
2018-11-18 20:30:47 GMT 52.880264 15.824738 33,000 153 432 -64
2018-11-18 20:30:42 GMT 52.888508 15.817958 33,000 153 432 0
2018-11-18 20:30:39 GMT 52.896744 15.811234 33,000 153 433 0
2018-11-18 20:30:36 GMT 52.901405 15.807443 33,000 153 434 -64
2018-11-18 20:30:33 GMT 52.904243 15.805089 33,000 153 434 0
2018-11-18 20:30:29 GMT 52.913956 15.797119 33,000 153 434 -64
2018-11-18 20:30:26 GMT 52.916840 15.794754 33,000 153 434 0
2018-11-18 20:30:21 GMT 52.926178 15.787048 33,000 153 434 0
2018-11-18 20:30:18 GMT 52.935154 15.779663 33,000 153 434 0
2018-11-18 20:30:14 GMT 52.940182 15.775504 33,000 153 434 0
2018-11-18 20:30:11 GMT 52.944511 15.771973 33,000 153 434 0
2018-11-18 20:30:08 GMT 52.949158 15.768127 33,000 153 434 0
2018-11-18 20:30:05 GMT 52.957077 15.761566 33,000 153 435 64
2018-11-18 20:30:01 GMT 52.964996 15.755081 33,000 153 435 64
2018-11-18 20:29:57 GMT 52.971451 15.749741 33,000 153 435 0
2018-11-18 20:29:50 GMT 52.981941 15.741132 33,000 153 436 -64
2018-11-18 20:29:45 GMT 52.990219 15.734329 33,000 153 436 -64
2018-11-18 20:29:42 GMT 52.997070 15.728734 33,000 153 436 64
2018-11-18 20:29:38 GMT 53.004639 15.722504 33,000 153 436 0
2018-11-18 20:29:35 GMT 53.008614 15.719238 33,000 153 436 0
2018-11-18 20:29:32 GMT 53.019463 15.710371 33,000 153 435 0
2018-11-18 20:29:29 GMT 53.024536 15.706290 33,000 153 436 0
2018-11-18 20:29:26 GMT 53.032448 15.699777 33,000 153 435 -64
2018-11-18 20:29:23 GMT 53.032448 15.699777 33,000 153 435 -64
2018-11-18 20:29:20 GMT 53.037872 15.695419 33,000 153 435 -64
2018-11-18 20:29:17 GMT 53.041489 15.692444 33,000 153 436 -64
2018-11-18 20:29:14 GMT 53.048325 15.686829 33,000 153 435 -64
2018-11-18 20:29:11 GMT 53.056595 15.680008 33,000 153 435 -64
2018-11-18 20:29:08 GMT 53.064514 15.673523 33,000 153 434 0
2018-11-18 20:29:05 GMT 53.064514 15.673523 33,000 153 435 0
2018-11-18 20:29:01 GMT 53.069550 15.669403 33,000 153 434 0
2018-11-18 20:28:57 GMT 53.079620 15.661087 33,000 153 434 0
2018-11-18 20:28:54 GMT 53.083923 15.657501 33,000 153 434 0
2018-11-18 20:28:51 GMT 53.089336 15.653085 33,000 153 434 0
2018-11-18 20:28:45 GMT 53.100834 15.643562 33,000 153 434 0
2018-11-18 20:28:41 GMT 53.106903 15.638567 33,000 153 433 -64
2018-11-18 20:28:36 GMT 53.117661 15.629700 33,000 153 434 0
2018-11-18 20:28:33 GMT 53.129509 15.619893 33,000 153 434 0
2018-11-18 20:28:29 GMT 53.129509 15.619893 33,000 153 434 0
2018-11-18 20:28:26 GMT 53.132721 15.617222 33,000 153 434 0
2018-11-18 20:28:23 GMT 53.138123 15.612784 33,000 153 434 0
2018-11-18 20:28:20 GMT 53.144592 15.607452 33,000 153 434 -64
2018-11-18 20:28:17 GMT 53.157120 15.597133 33,000 153 434 0
2018-11-18 20:28:14 GMT 53.157120 15.597133 33,000 153 434 0
2018-11-18 20:28:11 GMT 53.168243 15.587903 33,000 153 434 -64
2018-11-18 20:28:07 GMT 53.168243 15.587903 33,000 153 434 -64
2018-11-18 20:28:03 GMT 53.180439 15.577886 33,000 153 434 -64
2018-11-18 20:27:57 GMT 53.187607 15.571908 33,000 153 433 -64
2018-11-18 20:27:54 GMT 53.191544 15.568647 33,000 153 433 -64
2018-11-18 20:27:51 GMT 53.196220 15.564800 33,000 153 433 -64
2018-11-18 20:27:47 GMT 53.208023 15.554993 33,000 153 433 -64
2018-11-18 20:27:44 GMT 53.208023 15.554993 33,000 153 433 -64
2018-11-18 20:27:41 GMT 53.215942 15.548479 33,000 153 433 0
2018-11-18 20:27:37 GMT 53.220245 15.544948 33,000 153 433 0
2018-11-18 20:27:33 GMT 53.228436 15.538142 33,000 153 433 -64
2018-11-18 20:27:30 GMT 53.234528 15.533020 33,000 153 433 0
2018-11-18 20:27:27 GMT 53.239185 15.529175 33,000 153 432 -64
2018-11-18 20:27:24 GMT 53.244553 15.524780 33,000 153 432 -64
2018-11-18 20:27:21 GMT 53.251694 15.518816 33,000 153 432 0
2018-11-18 20:27:18 GMT 53.254921 15.516088 33,000 153 432 0
2018-11-18 20:27:15 GMT 53.260254 15.511675 33,000 153 432 0
2018-11-18 20:27:12 GMT 53.265629 15.507202 33,000 153 431 -64
2018-11-18 20:27:09 GMT 53.271652 15.502101 33,000 153 431 -64
2018-11-18 20:27:06 GMT 53.282364 15.493234 33,000 153 432 0
2018-11-18 20:27:00 GMT 53.288040 15.488447 33,000 153 431 0
2018-11-18 20:26:56 GMT 53.294071 15.483372 33,000 153 431 0
2018-11-18 20:26:52 GMT 53.302963 15.475891 33,000 153 430 0
2018-11-18 20:26:49 GMT 53.309017 15.470770 33,000 153 430 0
2018-11-18 20:26:44 GMT 53.316093 15.464792 33,000 153 429 0
2018-11-18 20:26:41 GMT 53.320679 15.460903 33,000 155 431 -64
2018-11-18 20:26:38 GMT 53.325962 15.456390 33,000 155 431 -64
2018-11-18 20:26:33 GMT 53.334435 15.449201 33,000 152 428 0
2018-11-18 20:26:30 GMT 53.339722 15.444659 33,000 152 428 0
2018-11-18 20:26:27 GMT 53.345745 15.439507 33,000 152 429 0
2018-11-18 20:26:21 GMT 53.358078 15.428964 33,000 152 428 0
2018-11-18 20:26:17 GMT 53.364395 15.423549 33,000 152 428 -64
2018-11-18 20:26:14 GMT 53.370712 15.418056 33,000 152 428 -64
2018-11-18 20:26:10 GMT 53.375305 15.414141 33,000 152 428 0
2018-11-18 20:26:07 GMT 53.381287 15.409031 33,000 152 428 0
2018-11-18 20:26:03 GMT 53.389366 15.402105 33,000 152 428 0
2018-11-18 20:25:59 GMT 53.396072 15.396397 33,000 152 428 0
2018-11-18 20:25:56 GMT 53.399979 15.393057 33,000 153 429 0
2018-11-18 20:25:52 GMT 53.407753 15.386514 33,000 156 433 -64
2018-11-18 20:25:49 GMT 53.414131 15.381183 33,000 153 430 -64
2018-11-18 20:25:45 GMT 53.419113 15.377063 33,000 155 431 -64
2018-11-18 20:25:42 GMT 53.430908 15.367519 33,000 154 430 -64
2018-11-18 20:25:35 GMT 53.438141 15.361869 33,000 155 432 0
2018-11-18 20:25:32 GMT 53.445374 15.356219 33,000 155 432 0
2018-11-18 20:25:29 GMT 53.456268 15.347900 33,000 155 432 0
2018-11-18 20:25:25 GMT 53.456268 15.347900 33,000 156 434 0
2018-11-18 20:25:18 GMT 53.470367 15.336995 33,000 156 433 0
2018-11-18 20:25:14 GMT 53.475906 15.332990 33,000 157 435 0
2018-11-18 20:25:10 GMT 53.483368 15.327890 33,000 159 438 64
2018-11-18 20:25:07 GMT 53.488289 15.324716 33,000 159 438 0
2018-11-18 20:25:04 GMT 53.495831 15.319869 33,000 159 439 0
2018-11-18 20:25:00 GMT 53.501881 15.315992 33,000 159 438 -64
2018-11-18 20:24:57 GMT 53.513939 15.308237 33,000 159 438 -64
2018-11-18 20:24:54 GMT 53.523018 15.302420 33,000 159 438 -64
2018-11-18 20:24:50 GMT 53.523018 15.302420 33,000 159 438 0
2018-11-18 20:24:47 GMT 53.526043 15.300481 33,000 159 438 64
2018-11-18 20:24:44 GMT 53.539589 15.291676 33,000 159 438 64
2018-11-18 20:24:38 GMT 53.546036 15.287554 33,000 159 438 0
2018-11-18 20:24:35 GMT 53.549057 15.285592 33,000 158 437 0
2018-11-18 20:24:32 GMT 53.555462 15.281417 33,000 158 437 0
2018-11-18 20:24:27 GMT 53.564850 15.275391 33,000 158 437 -64
2018-11-18 20:24:22 GMT 53.573914 15.269505 33,000 158 437 -64
2018-11-18 20:24:16 GMT 53.592728 15.257342 33,000 158 437 0
2018-11-18 20:24:12 GMT 53.592728 15.257342 33,000 158 437 -64
2018-11-18 20:24:09 GMT 53.599129 15.253143 33,000 158 437 0
2018-11-18 20:24:06 GMT 53.604435 15.249750 33,000 158 437 0
2018-11-18 20:24:02 GMT 53.613831 15.243609 33,000 158 437 0
2018-11-18 20:23:57 GMT 53.621338 15.238743 33,000 158 437 -64
2018-11-18 20:23:54 GMT 53.633018 15.231171 33,000 158 437 -64
2018-11-18 20:23:50 GMT 53.633018 15.231171 33,000 158 437 0
2018-11-18 20:23:47 GMT 53.639816 15.226808 33,000 158 437 0
2018-11-18 20:23:44 GMT 53.644333 15.223820 33,000 158 437 -64
2018-11-18 20:23:40 GMT 53.651875 15.218973 33,000 158 437 0
2018-11-18 20:23:35 GMT 53.671097 15.206491 33,000 158 437 0
2018-11-18 20:23:31 GMT 53.671097 15.206491 33,000 158 437 0
2018-11-18 20:23:28 GMT 53.676731 15.202816 33,000 158 438 -64
2018-11-18 20:23:24 GMT 53.691467 15.193229 33,000 158 438 -64
2018-11-18 20:23:20 GMT 53.691467 15.193229 33,000 158 438 -64
2018-11-18 20:23:16 GMT 53.699753 15.187814 33,000 158 438 -64
2018-11-18 20:23:10 GMT 53.711460 15.180197 33,000 158 438 0
2018-11-18 20:23:02 GMT 53.725433 15.171099 33,000 158 439 0
2018-11-18 20:22:59 GMT 53.732594 15.166384 33,000 158 438 -64
2018-11-18 20:22:52 GMT 53.743561 15.159249 33,000 158 439 0
2018-11-18 20:22:49 GMT 53.749603 15.155326 33,000 158 439 -64
2018-11-18 20:22:42 GMT 53.762062 15.147158 33,000 158 439 0
2018-11-18 20:22:38 GMT 53.770020 15.141985 33,000 158 439 0
2018-11-18 20:22:34 GMT 53.779083 15.136100 33,000 158 438 0
2018-11-18 20:22:28 GMT 53.789658 15.129194 33,000 158 438 0
2018-11-18 20:22:25 GMT 53.794968 15.125741 33,000 158 438 0
2018-11-18 20:22:21 GMT 53.802521 15.120797 33,000 158 438 0
2018-11-18 20:22:17 GMT 53.809296 15.116324 33,000 158 438 -64
2018-11-18 20:22:13 GMT 53.818764 15.110159 33,000 158 438 -64
2018-11-18 20:22:10 GMT 53.824402 15.106515 33,000 158 438 -64
2018-11-18 20:22:06 GMT 53.830074 15.102808 33,000 158 438 -64
2018-11-18 20:21:59 GMT 53.843670 15.093922 33,000 158 438 0
2018-11-18 20:21:56 GMT 53.849304 15.090193 33,000 158 438 0
2018-11-18 20:21:52 GMT 53.860241 15.083017 33,000 158 438 0
2018-11-18 20:21:49 GMT 53.862167 15.081796 33,000 158 438 0
2018-11-18 20:21:46 GMT 53.868942 15.077401 33,000 158 437 -64
2018-11-18 20:21:41 GMT 53.879841 15.070172 33,000 158 437 0
2018-11-18 20:21:38 GMT 53.883224 15.067984 33,000 158 437 -64
2018-11-18 20:21:35 GMT 53.889267 15.063982 33,000 158 437 -64
2018-11-18 20:21:31 GMT 53.899063 15.057547 33,000 158 437 0
2018-11-18 20:21:28 GMT 53.902817 15.055115 33,000 158 436 -64
2018-11-18 20:21:24 GMT 53.908813 15.051113 33,000 158 436 0
2018-11-18 20:21:20 GMT 53.918198 15.044969 33,000 158 436 0
2018-11-18 20:21:17 GMT 53.923458 15.041495 33,000 158 436 0
2018-11-18 20:21:14 GMT 53.928360 15.038243 33,000 158 436 0
2018-11-18 20:21:08 GMT 53.940029 15.030589 33,000 158 436 0
2018-11-18 20:21:05 GMT 53.950150 15.023961 33,000 158 436 -64
2018-11-18 20:20:59 GMT 53.961819 15.016291 33,000 158 436 -64
2018-11-18 20:20:53 GMT 53.967453 15.012582 33,000 158 436 -64
2018-11-18 20:20:49 GMT 53.976852 15.006355 33,000 158 436 -64
2018-11-18 20:20:46 GMT 53.980625 15.003931 33,000 158 436 -64
2018-11-18 20:20:43 GMT 53.987000 14.999712 33,000 158 437 0
2018-11-18 20:20:36 GMT 54.006546 14.986843 33,000 158 437 0
2018-11-18 20:20:33 GMT 54.006546 14.986843 33,000 158 437 0
2018-11-18 20:20:28 GMT 54.015957 14.980666 33,000 158 436 -64
2018-11-18 20:20:25 GMT 54.023499 14.975739 33,000 158 436 0
2018-11-18 20:20:21 GMT 54.028759 14.972265 33,000 158 436 0
2018-11-18 20:20:18 GMT 54.035110 14.968087 33,000 158 436 0
2018-11-18 20:20:15 GMT 54.040771 14.964348 33,000 158 436 0
2018-11-18 20:20:11 GMT 54.047520 14.959905 33,000 158 436 0
2018-11-18 20:20:06 GMT 54.056503 14.953927 33,000 158 435 -64
2018-11-18 20:20:01 GMT 54.065536 14.947950 33,000 158 435 -64
2018-11-18 20:19:58 GMT 54.070404 14.944702 33,000 158 435 -64
2018-11-18 20:19:55 GMT 54.077133 14.940229 33,000 158 435 -64
2018-11-18 20:19:52 GMT 54.083130 14.936305 33,000 158 435 0
2018-11-18 20:19:49 GMT 54.090256 14.931551 33,000 158 435 0
2018-11-18 20:19:45 GMT 54.095516 14.928077 33,000 158 435 0
2018-11-18 20:19:42 GMT 54.102219 14.923634 33,000 158 435 0
2018-11-18 20:19:38 GMT 54.108971 14.919110 33,000 158 435 0
2018-11-18 20:19:35 GMT 54.113846 14.915902 33,000 158 434 0
2018-11-18 20:19:32 GMT 54.119843 14.911900 33,000 158 434 -64
2018-11-18 20:19:29 GMT 54.124329 14.908918 33,000 158 434 -64
2018-11-18 20:19:24 GMT 54.133690 14.902712 33,000 158 434 -64
2018-11-18 20:19:20 GMT 54.143784 14.896048 33,000 158 434 0
2018-11-18 20:19:14 GMT 54.153488 14.889614 33,000 158 434 0
2018-11-18 20:19:11 GMT 54.160995 14.884670 33,000 158 434 -64
2018-11-18 20:19:08 GMT 54.165066 14.881870 33,000 158 434 0
2018-11-18 20:19:04 GMT 54.172211 14.877215 33,000 158 434 -64
2018-11-18 20:18:59 GMT 54.183426 14.869760 33,000 158 435 -64
2018-11-18 20:18:54 GMT 54.192764 14.863533 33,000 158 435 -64
2018-11-18 20:18:51 GMT 54.198395 14.859794 33,000 158 435 -64
2018-11-18 20:18:48 GMT 54.202103 14.857282 33,000 158 435 -64
2018-11-18 20:18:43 GMT 54.211479 14.851011 33,000 158 435 -64
2018-11-18 20:18:39 GMT 54.218227 14.846568 33,000 158 436 -64
2018-11-18 20:18:36 GMT 54.226467 14.841075 33,000 158 436 0
2018-11-18 20:18:33 GMT 54.230576 14.838292 33,000 158 436 0
2018-11-18 20:18:29 GMT 54.238037 14.833348 33,000 158 436 0
2018-11-18 20:18:26 GMT 54.251141 14.824596 33,000 158 436 0
2018-11-18 20:18:23 GMT 54.251141 14.824596 33,000 158 436 -64
2018-11-18 20:18:17 GMT 54.260513 14.818281 33,000 158 436 -64
2018-11-18 20:18:14 GMT 54.268021 14.813259 33,000 158 436 0
2018-11-18 20:18:11 GMT 54.271389 14.811024 33,000 158 436 0
2018-11-18 20:18:06 GMT 54.281120 14.804577 33,000 158 436 0
2018-11-18 20:18:01 GMT 54.289360 14.799000 33,000 158 436 -64
2018-11-18 20:17:54 GMT 54.302116 14.790511 33,000 158 436 0
2018-11-18 20:17:51 GMT 54.309563 14.785434 33,000 158 436 0
2018-11-18 20:17:47 GMT 54.316681 14.780650 33,000 158 436 -64
2018-11-18 20:17:44 GMT 54.321167 14.777661 33,000 158 436 0
2018-11-18 20:17:41 GMT 54.327942 14.773138 33,000 158 436 -64
2018-11-18 20:17:36 GMT 54.336914 14.767079 33,000 158 436 -64
2018-11-18 20:17:33 GMT 54.343266 14.762795 33,000 158 435 0
2018-11-18 20:17:30 GMT 54.347782 14.759799 33,000 158 435 0
2018-11-18 20:17:24 GMT 54.360493 14.751226 33,000 158 435 0
2018-11-18 20:17:19 GMT 54.368732 14.745650 33,000 158 435 0
2018-11-18 20:17:14 GMT 54.387772 14.732747 33,000 158 436 -64
2018-11-18 20:17:10 GMT 54.387772 14.732747 33,000 158 435 -64
2018-11-18 20:17:06 GMT 54.393402 14.728921 33,000 158 435 0
2018-11-18 20:17:03 GMT 54.406494 14.720145 33,000 158 436 -64
2018-11-18 20:16:59 GMT 54.406494 14.720145 33,000 158 435 0
2018-11-18 20:16:55 GMT 54.412815 14.715854 33,000 158 435 0
2018-11-18 20:16:52 GMT 54.418076 14.712275 33,000 158 435 0
2018-11-18 20:16:48 GMT 54.428925 14.704958 33,000 158 436 0
2018-11-18 20:16:45 GMT 54.433765 14.701705 33,000 158 436 -64
2018-11-18 20:16:42 GMT 54.438675 14.698415 33,000 158 436 -64
2018-11-18 20:16:38 GMT 54.445404 14.693891 33,000 158 436 -64
2018-11-18 20:16:35 GMT 54.457043 14.686057 33,000 158 436 0
2018-11-18 20:16:32 GMT 54.457043 14.686057 33,000 158 436 0
2018-11-18 20:16:29 GMT 54.463791 14.681480 33,000 158 436 0
2018-11-18 20:16:26 GMT 54.469795 14.677485 33,000 158 437 0
2018-11-18 20:16:23 GMT 54.475800 14.673406 33,000 158 437 0
2018-11-18 20:16:16 GMT 54.485916 14.666586 33,000 158 437 0
2018-11-18 20:16:13 GMT 54.492329 14.662254 33,000 158 437 0
2018-11-18 20:16:07 GMT 54.504337 14.654097 33,000 158 437 -64
2018-11-18 20:16:04 GMT 54.510727 14.649784 33,000 158 437 -64
2018-11-18 20:16:01 GMT 54.516350 14.646024 33,000 158 437 -64
2018-11-18 20:15:57 GMT 54.523098 14.641363 33,000 158 437 -64
2018-11-18 20:15:53 GMT 54.529495 14.637020 33,000 158 437 0
2018-11-18 20:15:50 GMT 54.535156 14.633206 33,000 158 438 0
2018-11-18 20:15:47 GMT 54.543442 14.627630 33,000 158 438 0
2018-11-18 20:15:44 GMT 54.546421 14.625633 33,000 158 438 -64
2018-11-18 20:15:40 GMT 54.554707 14.619973 33,000 158 438 0
2018-11-18 20:15:37 GMT 54.560349 14.616179 33,000 158 438 -64
2018-11-18 20:15:34 GMT 54.567123 14.611574 33,000 158 438 -64
2018-11-18 20:15:30 GMT 54.573513 14.607239 33,000 158 437 0
2018-11-18 20:15:26 GMT 54.581802 14.601662 33,000 158 437 0
2018-11-18 20:15:23 GMT 54.586670 14.598326 33,000 158 437 0
2018-11-18 20:15:20 GMT 54.594555 14.592923 33,000 158 437 0
2018-11-18 20:15:14 GMT 54.604706 14.586047 33,000 158 437 0
2018-11-18 20:15:10 GMT 54.612572 14.580605 33,000 158 437 0
2018-11-18 20:15:04 GMT 54.620857 14.574946 33,000 158 437 64
2018-11-18 20:15:01 GMT 54.628006 14.570133 33,000 158 438 0
2018-11-18 20:14:56 GMT 54.639267 14.562378 33,000 158 438 0
2018-11-18 20:14:53 GMT 54.642242 14.560358 33,000 158 438 0
2018-11-18 20:14:50 GMT 54.648651 14.555969 33,000 158 438 0
2018-11-18 20:14:47 GMT 54.653503 14.552603 33,000 158 438 0
2018-11-18 20:14:44 GMT 54.659168 14.548728 33,000 158 438 -64
2018-11-18 20:14:41 GMT 54.665920 14.544067 33,000 158 438 0
2018-11-18 20:14:38 GMT 54.672318 14.539678 33,000 158 438 0
2018-11-18 20:14:35 GMT 54.681702 14.533248 33,000 158 438 0
2018-11-18 20:14:29 GMT 54.687332 14.529419 33,000 158 438 -64
2018-11-18 20:14:26 GMT 54.692596 14.525784 33,000 158 438 -64
2018-11-18 20:14:22 GMT 54.702744 14.518849 33,000 158 438 -64
2018-11-18 20:14:17 GMT 54.710632 14.513424 33,000 158 438 -64
2018-11-18 20:14:14 GMT 54.715897 14.509789 33,000 158 438 -64
2018-11-18 20:14:11 GMT 54.721161 14.506154 33,000 158 438 -64
2018-11-18 20:14:08 GMT 54.726067 14.502785 33,000 158 438 0
2018-11-18 20:14:05 GMT 54.733200 14.497914 33,000 158 438 0
2018-11-18 20:14:01 GMT 54.740356 14.493048 33,000 158 438 0
2018-11-18 20:13:53 GMT 54.755035 14.482969 33,000 158 438 0
2018-11-18 20:13:50 GMT 54.760654 14.479065 33,000 158 438 0
2018-11-18 20:13:43 GMT 54.775692 14.468744 33,000 158 438 -64
2018-11-18 20:13:40 GMT 54.779415 14.466164 33,000 158 438 -64
2018-11-18 20:13:35 GMT 54.789551 14.459139 33,000 158 438 0
2018-11-18 20:13:32 GMT 54.800079 14.451949 33,000 158 438 0
2018-11-18 20:13:29 GMT 54.800079 14.451949 33,000 158 438 0
2018-11-18 20:13:23 GMT 54.813213 14.442860 33,000 158 438 0
2018-11-18 20:13:19 GMT 54.819626 14.438539 33,000 158 438 0
2018-11-18 20:13:13 GMT 54.831970 14.429959 33,000 158 438 0
2018-11-18 20:13:10 GMT 54.836487 14.426880 33,000 158 438 -64
2018-11-18 20:13:01 GMT 54.851898 14.416244 33,000 158 438 -64
2018-11-18 20:12:58 GMT 54.859020 14.411316 33,000 158 438 -64
2018-11-18 20:12:54 GMT 54.867260 14.405573 33,000 158 438 -64
2018-11-18 20:12:51 GMT 54.871029 14.402993 33,000 158 438 0
2018-11-18 20:12:48 GMT 54.878174 14.398068 33,000 158 438 -64
2018-11-18 20:12:40 GMT 54.893188 14.387647 33,000 158 438 0
2018-11-18 20:12:37 GMT 54.898407 14.384012 33,000 158 438 0
2018-11-18 20:12:32 GMT 54.906315 14.378607 33,000 158 438 0
2018-11-18 20:12:29 GMT 54.915665 14.372137 33,000 158 438 0
2018-11-18 20:12:19 GMT 54.931034 14.361461 33,000 158 437 0
2018-11-18 20:12:15 GMT 54.938530 14.356301 33,000 158 437 -64
2018-11-18 20:12:11 GMT 54.948307 14.349476 33,000 158 437 0
2018-11-18 20:12:08 GMT 54.953156 14.346125 33,000 158 437 0
2018-11-18 20:12:05 GMT 54.958420 14.342490 33,000 158 437 -64
2018-11-18 20:11:58 GMT 54.971535 14.333413 33,000 158 437 -64
2018-11-18 20:11:55 GMT 54.977142 14.329484 33,000 158 437 -64
2018-11-18 20:11:48 GMT 54.990646 14.320113 33,000 158 437 0
2018-11-18 20:11:45 GMT 54.998154 14.314943 33,000 158 437 0
2018-11-18 20:11:40 GMT 55.006729 14.308943 33,000 158 437 0
2018-11-18 20:11:37 GMT 55.009754 14.306863 33,000 158 437 0
2018-11-18 20:11:34 GMT 55.016506 14.302118 33,000 158 437 0
2018-11-18 20:11:29 GMT 55.025848 14.295636 33,000 158 437 0
2018-11-18 20:11:26 GMT 55.039307 14.286266 33,000 158 436 0
2018-11-18 20:11:21 GMT 55.039307 14.286266 33,000 158 436 0
2018-11-18 20:11:18 GMT 55.044903 14.282310 33,000 158 436 0
2018-11-18 20:11:15 GMT 55.052032 14.277380 33,000 158 436 0
2018-11-18 20:11:12 GMT 55.058762 14.272694 33,000 158 436 0
2018-11-18 20:11:09 GMT 55.063248 14.269544 33,000 158 436 0
2018-11-18 20:11:06 GMT 55.068829 14.265664 33,000 158 436 0
2018-11-18 20:11:02 GMT 55.075928 14.260658 33,000 158 435 0
2018-11-18 20:10:59 GMT 55.083775 14.255177 33,000 158 435 0
2018-11-18 20:10:55 GMT 55.088985 14.251598 33,000 158 435 0
2018-11-18 20:10:51 GMT 55.096436 14.246355 33,000 158 435 0
2018-11-18 20:10:47 GMT 55.103138 14.241694 33,000 158 435 0
2018-11-18 20:10:44 GMT 55.109890 14.236950 33,000 158 435 -64
2018-11-18 20:10:41 GMT 55.115479 14.233111 33,000 158 435 0
2018-11-18 20:10:37 GMT 55.122162 14.228426 33,000 158 435 -64
2018-11-18 20:10:33 GMT 55.130001 14.222967 33,000 158 435 -64
2018-11-18 20:10:27 GMT 55.141571 14.214855 33,000 158 435 -64
2018-11-18 20:10:24 GMT 55.147923 14.210483 33,000 158 435 -64
2018-11-18 20:10:20 GMT 55.153137 14.206820 33,000 158 435 -64
2018-11-18 20:10:15 GMT 55.165054 14.198497 33,000 158 435 -64
2018-11-18 20:10:12 GMT 55.168777 14.195834 33,000 158 434 -64
2018-11-18 20:10:09 GMT 55.175079 14.191428 33,000 158 434 -64
2018-11-18 20:10:04 GMT 55.184372 14.184931 33,000 158 434 0
2018-11-18 20:10:00 GMT 55.192932 14.178907 33,000 158 434 0
2018-11-18 20:09:55 GMT 55.200012 14.173945 33,000 158 433 0
2018-11-18 20:09:52 GMT 55.208542 14.168001 33,000 158 433 0
2018-11-18 20:09:49 GMT 55.211884 14.165622 33,000 158 433 0
2018-11-18 20:09:46 GMT 55.217796 14.161460 33,000 158 433 0
2018-11-18 20:09:43 GMT 55.223373 14.157499 33,000 158 433 0
2018-11-18 20:09:39 GMT 55.231522 14.151764 33,000 158 432 0
2018-11-18 20:09:34 GMT 55.238937 14.146513 33,000 158 432 -64
2018-11-18 20:09:31 GMT 55.246307 14.141262 33,000 158 432 0
2018-11-18 20:09:28 GMT 55.250748 14.138112 33,000 158 432 0
2018-11-18 20:09:24 GMT 55.258163 14.132942 33,000 158 432 0
2018-11-18 20:09:21 GMT 55.263699 14.129001 33,000 158 432 0
2018-11-18 20:09:18 GMT 55.270752 14.123975 33,000 158 432 0
2018-11-18 20:09:13 GMT 55.278122 14.118724 33,000 157 431 0
2018-11-18 20:09:10 GMT 55.285904 14.113270 33,000 157 431 64
2018-11-18 20:09:07 GMT 55.289581 14.110607 33,000 157 431 64
2018-11-18 20:09:04 GMT 55.300659 14.102783 33,000 157 431 0
2018-11-18 20:09:01 GMT 55.300659 14.102783 33,000 157 431 0
2018-11-18 20:08:58 GMT 55.305450 14.099337 33,000 157 431 -64
2018-11-18 20:08:53 GMT 55.315464 14.092296 33,000 158 432 0
2018-11-18 20:08:50 GMT 55.320236 14.088835 33,000 158 432 0
2018-11-18 20:08:47 GMT 55.326920 14.084150 33,000 158 432 0
2018-11-18 20:08:44 GMT 55.332455 14.080145 33,000 158 432 0
2018-11-18 20:08:41 GMT 55.337624 14.076483 33,000 157 432 -64
2018-11-18 20:08:38 GMT 55.345024 14.071239 33,000 157 431 0
2018-11-18 20:08:35 GMT 55.349445 14.068076 33,000 157 432 -64
2018-11-18 20:08:31 GMT 55.355358 14.063832 33,000 157 432 -64
2018-11-18 20:08:28 GMT 55.361618 14.059350 33,000 157 432 0
2018-11-18 20:08:25 GMT 55.367569 14.055149 33,000 157 432 0
2018-11-18 20:08:21 GMT 55.375671 14.049333 33,000 157 432 0
2018-11-18 20:08:14 GMT 55.387527 14.040931 33,000 157 432 0
2018-11-18 20:08:10 GMT 55.394554 14.035866 33,000 157 432 0
2018-11-18 20:08:04 GMT 55.407486 14.026633 33,000 157 432 0
2018-11-18 20:08:00 GMT 55.413780 14.022134 33,000 157 432 0
2018-11-18 20:07:53 GMT 55.425652 14.013727 33,000 158 433 0
2018-11-18 20:07:50 GMT 55.433800 14.007901 33,000 158 433 0
2018-11-18 20:07:43 GMT 55.445671 13.999500 33,000 158 433 0
2018-11-18 20:07:38 GMT 55.453815 13.993750 33,000 158 434 0
2018-11-18 20:07:35 GMT 55.460175 13.989258 32,975 158 434 0
2018-11-18 20:07:32 GMT 55.464989 13.985767 32,975 158 434 0
2018-11-18 20:07:29 GMT 55.473587 13.979770 32,975 158 435 64
2018-11-18 20:07:22 GMT 55.484402 13.972034 32,975 158 438 -256
2018-11-18 20:07:18 GMT 55.492310 13.966453 33,000 158 438 -64
2018-11-18 20:07:12 GMT 55.503571 13.958463 32,975 158 439 640
2018-11-18 20:07:08 GMT 55.510704 13.953409 32,925 158 440 768
2018-11-18 20:07:03 GMT 55.520142 13.946727 32,825 158 441 1472
2018-11-18 20:07:00 GMT 55.525043 13.943281 32,650 158 441 2304
2018-11-18 20:06:57 GMT 55.530716 13.939237 32,675 158 441 2176
2018-11-18 20:06:49 GMT 55.547333 13.927418 32,200 157 440 2496
2018-11-18 20:06:42 GMT 55.558281 13.919592 31,925 157 441 2944
2018-11-18 20:06:39 GMT 55.565079 13.914785 31,775 157 441 2560
2018-11-18 20:06:36 GMT 55.570335 13.910923 31,700 157 441 2496
2018-11-18 20:06:31 GMT 55.581253 13.903032 31,400 157 439 2112
2018-11-18 20:06:28 GMT 55.590588 13.896246 31,250 157 438 1216
2018-11-18 20:06:22 GMT 55.597290 13.891354 31,200 157 433 1024
2018-11-18 20:06:18 GMT 55.604324 13.886303 31,125 157 428 1600
2018-11-18 20:06:15 GMT 55.609451 13.882557 31,025 157 426 1600
2018-11-18 20:06:11 GMT 55.617077 13.877020 30,950 157 425 1408
2018-11-18 20:06:08 GMT 55.624695 13.871488 30,850 157 424 1216
2018-11-18 20:06:05 GMT 55.635185 13.863888 30,675 157 423 1920
2018-11-18 20:06:01 GMT 55.635185 13.863888 30,700 157 423 1920
2018-11-18 20:05:57 GMT 55.642399 13.858652 30,500 157 421 2368
2018-11-18 20:05:54 GMT 55.646729 13.855476 30,450 157 420 2880
2018-11-18 20:05:50 GMT 55.654266 13.850014 30,250 157 419 3200
2018-11-18 20:05:46 GMT 55.663956 13.843031 29,975 157 419 3264
2018-11-18 20:05:37 GMT 55.678989 13.832130 29,275 157 419 3584
2018-11-18 20:05:34 GMT 55.684017 13.828440 29,300 157 419 3584
2018-11-18 20:05:29 GMT 55.692631 13.822260 29,000 157 419 3840
2018-11-18 20:05:23 GMT 55.710297 13.809648 28,325 157 423 4352
2018-11-18 20:05:17 GMT 55.715721 13.805695 28,100 157 423 4608
2018-11-18 20:05:14 GMT 55.720051 13.802605 27,925 157 425 4800
2018-11-18 20:05:10 GMT 55.727360 13.797369 27,600 157 427 4864
2018-11-18 20:05:06 GMT 55.735794 13.791337 25,700 157 432 3648
2018-11-18 20:05:03 GMT 55.739090 13.788958 27,075 157 430 4864
2018-11-18 20:04:57 GMT 55.750534 13.780684 26,625 157 434 3456
2018-11-18 20:04:54 GMT 55.757950 13.775274 26,450 157 432 3712
2018-11-18 20:04:50 GMT 55.764633 13.770530 26,175 157 432 3712
2018-11-18 20:04:46 GMT 55.777222 13.761375 25,850 157 433 3776
2018-11-18 20:04:43 GMT 55.777222 13.761375 25,750 157 433 3648
2018-11-18 20:04:39 GMT 55.784592 13.755965 25,525 157 432 2432
2018-11-18 20:04:36 GMT 55.789764 13.752219 25,375 157 432 2432
2018-11-18 20:04:31 GMT 55.799702 13.744926 25,250 157 427 640
2018-11-18 20:04:24 GMT 55.813435 13.734884 25,175 157 418 576
2018-11-18 20:04:21 GMT 55.816971 13.732224 25,150 157 416 640
2018-11-18 20:04:18 GMT 55.821625 13.728832 25,125 157 415 704
2018-11-18 20:04:15 GMT 55.827942 13.724254 25,075 157 413 960
2018-11-18 20:04:10 GMT 55.835358 13.718834 25,025 157 413 640
2018-11-18 20:04:07 GMT 55.841354 13.714433 25,000 157 413 0
2018-11-18 20:04:04 GMT 55.847031 13.710272 25,000 157 415 0
2018-11-18 20:04:00 GMT 55.854080 13.705111 25,000 157 415 0
2018-11-18 20:03:57 GMT 55.859428 13.701239 25,000 157 415 0
2018-11-18 20:03:54 GMT 55.864700 13.697371 25,000 157 414 -64
2018-11-18 20:03:50 GMT 55.877815 13.687849 25,000 157 413 0
2018-11-18 20:03:46 GMT 55.883450 13.683643 25,000 157 414 -64
2018-11-18 20:03:43 GMT 55.883450 13.683643 25,000 157 414 -64
2018-11-18 20:03:39 GMT 55.891571 13.677729 25,000 157 413 0
2018-11-18 20:03:36 GMT 55.896854 13.673859 25,000 157 413 64
2018-11-18 20:03:31 GMT 55.905670 13.667408 25,000 157 413 0
2018-11-18 20:03:28 GMT 55.909927 13.664329 25,000 157 413 0
2018-11-18 20:03:25 GMT 55.915558 13.660167 25,000 157 413 0
2018-11-18 20:03:21 GMT 55.924366 13.653688 25,000 157 413 -64
2018-11-18 20:03:18 GMT 55.928604 13.650599 25,000 157 413 0
2018-11-18 20:03:15 GMT 55.934235 13.646479 25,000 157 413 -64
2018-11-18 20:03:12 GMT 55.939171 13.642874 25,000 157 413 0
2018-11-18 20:03:09 GMT 55.944443 13.639027 25,000 157 413 0
2018-11-18 20:03:05 GMT 55.951878 13.633604 25,000 157 413 0
2018-11-18 20:03:00 GMT 55.959961 13.627708 25,000 157 412 -64
2018-11-18 20:02:57 GMT 55.964905 13.624046 25,000 157 412 0
2018-11-18 20:02:54 GMT 55.970535 13.619884 25,000 157 412 0
2018-11-18 20:02:50 GMT 55.977203 13.614979 25,000 157 413 0
2018-11-18 20:02:47 GMT 55.983536 13.610344 25,000 157 412 -64
2018-11-18 20:02:44 GMT 55.988846 13.606484 25,000 157 412 0
2018-11-18 20:02:39 GMT 55.997269 13.600242 25,000 157 412 -64
2018-11-18 20:02:36 GMT 56.002213 13.596663 25,000 157 412 -64
2018-11-18 20:02:33 GMT 56.007156 13.593001 25,000 157 412 -64
2018-11-18 20:02:29 GMT 56.013474 13.588423 25,000 157 413 -64
2018-11-18 20:02:26 GMT 56.021568 13.582449 25,000 157 412 0
2018-11-18 20:02:23 GMT 56.026154 13.579102 25,000 157 412 -128
2018-11-18 20:02:18 GMT 56.033890 13.573359 25,000 157 412 64
2018-11-18 20:02:15 GMT 56.039165 13.569489 25,000 157 413 64
2018-11-18 20:02:08 GMT 56.051826 13.560133 25,000 157 413 -64
2018-11-18 20:02:05 GMT 56.057144 13.556213 25,000 157 413 -128
2018-11-18 20:01:57 GMT 56.070866 13.546057 25,000 157 413 0
2018-11-18 20:01:52 GMT 56.085670 13.535156 25,000 157 412 0
2018-11-18 20:01:47 GMT 56.088463 13.533096 25,000 157 413 0
2018-11-18 20:01:44 GMT 56.094097 13.528891 25,000 157 413 0
2018-11-18 20:01:36 GMT 56.106804 13.519535 25,000 157 413 0
2018-11-18 20:01:33 GMT 56.113136 13.514814 25,000 157 413 0
2018-11-18 20:01:26 GMT 56.124756 13.506192 25,000 157 413 -64
2018-11-18 20:01:23 GMT 56.131477 13.501253 25,000 157 413 -64
2018-11-18 20:01:18 GMT 56.139950 13.494987 25,000 157 413 -64
2018-11-18 20:01:15 GMT 56.144138 13.491812 25,000 157 413 0
2018-11-18 20:01:12 GMT 56.156525 13.482722 25,000 157 413 -64
2018-11-18 20:01:09 GMT 56.156525 13.482722 25,000 157 413 0
2018-11-18 20:01:05 GMT 56.161423 13.479059 25,000 157 413 -64
2018-11-18 20:01:02 GMT 56.169559 13.473015 25,000 157 413 0
2018-11-18 20:00:58 GMT 56.175568 13.468572 25,000 157 413 0
2018-11-18 20:00:54 GMT 56.187901 13.459454 25,000 157 413 0
2018-11-18 20:00:50 GMT 56.187901 13.459454 25,000 157 413 0
2018-11-18 20:00:44 GMT 56.199554 13.450761 25,000 157 414 0
2018-11-18 20:00:41 GMT 56.205917 13.446100 25,000 157 413 0
2018-11-18 20:00:37 GMT 56.216854 13.437910 25,000 157 414 0
2018-11-18 20:00:34 GMT 56.232742 13.426042 25,000 157 415 0
2018-11-18 20:00:28 GMT 56.232742 13.426042 25,000 157 414 0
2018-11-18 20:00:24 GMT 56.235245 13.424177 25,000 157 414 0
2018-11-18 20:00:19 GMT 56.244781 13.417136 25,000 157 414 0
2018-11-18 20:00:13 GMT 56.253250 13.410728 25,000 157 415 0
2018-11-18 20:00:08 GMT 56.263546 13.403063 25,000 157 416 0
2018-11-18 20:00:02 GMT 56.274532 13.394909 25,000 157 415 0
2018-11-18 19:59:56 GMT 56.283379 13.388300 25,000 157 416 0
2018-11-18 19:59:51 GMT 56.292252 13.381681 25,000 157 416 0
2018-11-18 19:59:46 GMT 56.307861 13.370028 25,000 157 416 0
2018-11-18 19:59:43 GMT 56.307861 13.370028 25,000 157 416 0
2018-11-18 19:59:40 GMT 56.311729 13.367100 25,000 157 416 0
2018-11-18 19:59:36 GMT 56.319901 13.361040 25,000 157 416 0
2018-11-18 19:59:33 GMT 56.326263 13.356212 25,000 157 416 0
2018-11-18 19:59:30 GMT 56.329464 13.353796 25,000 157 416 0
2018-11-18 19:59:26 GMT 56.339035 13.346641 25,000 157 416 0
2018-11-18 19:59:23 GMT 56.343662 13.343239 25,000 157 416 0
2018-11-18 19:59:20 GMT 56.347900 13.340063 25,000 157 416 0
2018-11-18 19:59:12 GMT 56.363159 13.328580 25,000 157 416 0
2018-11-18 19:59:09 GMT 56.366684 13.325917 25,000 157 416 0
2018-11-18 19:59:05 GMT 56.376617 13.318509 25,000 157 416 0
2018-11-18 19:59:02 GMT 56.381184 13.315001 25,000 157 416 0
2018-11-18 19:58:59 GMT 56.385468 13.311825 25,000 157 416 0
2018-11-18 19:58:54 GMT 56.394638 13.304958 25,000 157 416 0
2018-11-18 19:58:51 GMT 56.400318 13.300667 25,000 157 416 0
2018-11-18 19:58:43 GMT 56.414471 13.290024 25,000 157 415 0
2018-11-18 19:58:40 GMT 56.419098 13.286549 25,000 157 415 -64
2018-11-18 19:58:37 GMT 56.423309 13.283386 25,000 157 415 -64
2018-11-18 19:58:31 GMT 56.435696 13.274059 25,000 157 415 0
2018-11-18 19:58:20 GMT 56.456543 13.258334 25,000 157 414 0
2018-11-18 19:58:17 GMT 56.459335 13.256170 25,000 157 414 0
2018-11-18 19:58:10 GMT 56.471684 13.246851 25,000 157 414 0
2018-11-18 19:58:07 GMT 56.477692 13.242354 25,000 157 414 0
2018-11-18 19:58:00 GMT 56.490025 13.233032 25,000 157 414 0
2018-11-18 19:57:56 GMT 56.497051 13.227711 25,000 157 413 0
2018-11-18 19:57:49 GMT 56.510414 13.217583 25,000 157 413 0
2018-11-18 19:57:45 GMT 56.515686 13.213556 25,000 157 413 0
2018-11-18 19:57:38 GMT 56.529053 13.203486 25,000 157 413 0
2018-11-18 19:57:34 GMT 56.535370 13.198658 25,000 157 412 0
2018-11-18 19:57:28 GMT 56.546955 13.189859 25,000 157 412 0
2018-11-18 19:57:24 GMT 56.552216 13.185924 25,000 157 411 0
2018-11-18 19:57:19 GMT 56.561714 13.178701 25,000 157 411 0
2018-11-18 19:57:16 GMT 56.566647 13.175011 25,000 157 411 0
2018-11-18 19:57:13 GMT 56.576469 13.167543 25,000 157 411 0
2018-11-18 19:57:10 GMT 56.576469 13.167543 25,000 157 411 0
2018-11-18 19:57:07 GMT 56.583454 13.162222 25,000 157 412 0
2018-11-18 19:57:02 GMT 56.591881 13.155785 25,000 157 412 0
2018-11-18 19:56:58 GMT 56.598541 13.150721 25,000 157 412 0
2018-11-18 19:56:55 GMT 56.604172 13.146429 25,000 157 411 0
2018-11-18 19:56:52 GMT 56.608730 13.143015 25,000 157 411 0
2018-11-18 19:56:48 GMT 56.616413 13.137168 25,000 157 411 0
2018-11-18 19:56:44 GMT 56.623444 13.131763 25,000 157 411 0
2018-11-18 19:56:41 GMT 56.633915 13.123789 25,000 157 411 0
2018-11-18 19:56:38 GMT 56.633915 13.123789 25,000 157 411 0
2018-11-18 19:56:35 GMT 56.638851 13.120068 25,000 157 411 0
2018-11-18 19:56:31 GMT 56.645508 13.115015 25,000 157 411 0
2018-11-18 19:56:27 GMT 56.652512 13.109694 25,000 157 411 0
2018-11-18 19:56:24 GMT 56.659847 13.104031 25,000 157 411 0
2018-11-18 19:56:20 GMT 56.665478 13.099779 25,000 157 411 0
2018-11-18 19:56:17 GMT 56.669998 13.096304 25,000 157 411 0
2018-11-18 19:56:14 GMT 56.675255 13.092248 25,000 157 411 0
2018-11-18 19:56:10 GMT 56.689266 13.081527 25,000 157 411 0
2018-11-18 19:56:07 GMT 56.689266 13.081527 25,000 157 411 0
2018-11-18 19:56:02 GMT 56.696949 13.075680 25,000 157 411 0
2018-11-18 19:55:57 GMT 56.706772 13.068149 25,000 157 412 -64
2018-11-18 19:55:54 GMT 56.711334 13.064632 25,000 157 412 0
2018-11-18 19:55:49 GMT 56.719025 13.058796 25,000 157 412 0
2018-11-18 19:55:46 GMT 56.724609 13.054419 25,000 157 412 0
2018-11-18 19:55:43 GMT 56.730606 13.049897 25,000 157 412 -64
2018-11-18 19:55:38 GMT 56.737587 13.044493 25,000 157 412 0
2018-11-18 19:55:34 GMT 56.744934 13.038883 25,000 157 412 -64
2018-11-18 19:55:31 GMT 56.752300 13.033241 25,000 157 411 0
2018-11-18 19:55:27 GMT 56.758583 13.028368 25,000 157 411 0
2018-11-18 19:55:18 GMT 56.774323 13.016224 25,000 157 410 64
2018-11-18 19:55:15 GMT 56.778488 13.013048 25,000 157 410 0
2018-11-18 19:55:09 GMT 56.788284 13.005495 25,000 157 410 -64
2018-11-18 19:55:05 GMT 56.795593 12.999839 25,000 157 410 -64
2018-11-18 19:55:02 GMT 56.802246 12.994766 25,000 157 411 0
2018-11-18 19:54:57 GMT 56.810623 12.988329 25,000 157 411 64
2018-11-18 19:54:54 GMT 56.821476 12.979992 25,000 157 412 -64
2018-11-18 19:54:51 GMT 56.821476 12.979992 25,000 157 412 -64
2018-11-18 19:54:48 GMT 56.826408 12.976183 25,000 157 412 -64
2018-11-18 19:54:45 GMT 56.831299 12.972461 25,000 157 412 -64
2018-11-18 19:54:42 GMT 56.836578 12.968416 25,000 157 412 0
2018-11-18 19:54:35 GMT 56.847794 12.959747 25,000 157 412 -64
2018-11-18 19:54:32 GMT 56.856575 12.952969 25,000 157 412 -64
2018-11-18 19:54:24 GMT 56.867432 12.944641 25,000 157 412 0
2018-11-18 19:54:21 GMT 56.873428 12.940034 25,000 157 413 0
2018-11-18 19:54:16 GMT 56.883251 12.932414 25,000 157 412 -64
2018-11-18 19:54:13 GMT 56.887802 12.928848 25,000 157 413 0
2018-11-18 19:54:09 GMT 56.895538 12.922926 25,000 157 412 0
2018-11-18 19:54:03 GMT 56.904293 12.916112 25,000 156 411 0
2018-11-18 19:54:00 GMT 56.910233 12.911510 25,000 156 411 -64
2018-11-18 19:53:54 GMT 56.920715 12.903357 25,000 157 410 0
2018-11-18 19:53:51 GMT 56.925938 12.899367 25,000 157 410 0
2018-11-18 19:53:48 GMT 56.931198 12.895288 25,000 157 410 0
2018-11-18 19:53:45 GMT 56.941635 12.887135 25,000 157 409 0
2018-11-18 19:53:42 GMT 56.941635 12.887135 25,000 156 408 0
2018-11-18 19:53:38 GMT 56.949635 12.880938 25,000 156 408 -64
2018-11-18 19:53:35 GMT 56.954475 12.877217 25,000 157 408 0
2018-11-18 19:53:32 GMT 56.958984 12.873659 25,000 157 408 0
2018-11-18 19:53:29 GMT 56.966629 12.867737 25,000 157 407 0
2018-11-18 19:53:23 GMT 56.974586 12.861535 25,000 157 407 0
2018-11-18 19:53:19 GMT 56.981140 12.856493 25,000 157 407 0
2018-11-18 19:53:15 GMT 56.989761 12.849751 25,000 156 407 0
2018-11-18 19:53:10 GMT 56.996338 12.844648 25,000 156 407 0
2018-11-18 19:53:06 GMT 57.005684 12.837259 25,000 156 407 0
2018-11-18 19:53:03 GMT 57.009827 12.834069 25,000 156 407 0
2018-11-18 19:53:00 GMT 57.013641 12.831087 25,000 156 408 0
2018-11-18 19:52:56 GMT 57.020599 12.825680 25,000 156 408 0
2018-11-18 19:52:53 GMT 57.026138 12.821302 25,000 156 408 -64
2018-11-18 19:52:50 GMT 57.031334 12.817235 25,000 156 408 0
2018-11-18 19:52:47 GMT 57.038223 12.811742 25,000 156 409 0
2018-11-18 19:52:40 GMT 57.049347 12.802971 25,000 156 408 0
2018-11-18 19:52:36 GMT 57.057636 12.796414 25,000 156 408 -64
2018-11-18 19:52:30 GMT 57.068016 12.788175 25,000 156 408 -64
2018-11-18 19:52:22 GMT 57.080490 12.778340 25,000 156 407 -64
2018-11-18 19:52:18 GMT 57.086681 12.773467 25,000 156 407 0
2018-11-18 19:52:11 GMT 57.098740 12.763796 25,000 156 406 0
2018-11-18 19:52:08 GMT 57.104607 12.759203 25,000 156 406 0
2018-11-18 19:52:01 GMT 57.116989 12.749368 25,000 156 406 0
2018-11-18 19:51:57 GMT 57.124924 12.743025 25,000 156 406 0
2018-11-18 19:51:53 GMT 57.129372 12.739533 25,000 156 406 -64
2018-11-18 19:51:50 GMT 57.137657 12.732977 25,000 156 405 0
2018-11-18 19:51:47 GMT 57.141056 12.730231 25,000 156 405 -64
2018-11-18 19:51:40 GMT 57.153076 12.720709 25,000 156 404 64
2018-11-18 19:51:36 GMT 57.159943 12.715302 25,000 156 404 0
2018-11-18 19:51:29 GMT 57.171967 12.705777 25,000 156 405 0
2018-11-18 19:51:25 GMT 57.178528 12.700710 25,000 156 405 0
2018-11-18 19:51:19 GMT 57.188141 12.693157 25,000 157 406 0
2018-11-18 19:51:15 GMT 57.196777 12.686374 25,000 157 406 0
2018-11-18 19:51:09 GMT 57.205765 12.679463 25,000 157 406 0
2018-11-18 19:51:04 GMT 57.214462 12.672729 25,000 157 407 0
2018-11-18 19:51:01 GMT 57.221729 12.667148 25,000 157 408 64
2018-11-18 19:50:54 GMT 57.233231 12.658396 25,000 157 408 0
2018-11-18 19:50:49 GMT 57.240540 12.652883 25,000 157 409 0
2018-11-18 19:50:46 GMT 57.246170 12.648630 25,000 165 415 -64
2018-11-18 19:50:43 GMT 57.252457 12.643935 25,000 157 410 0
2018-11-18 19:50:38 GMT 57.259483 12.638707 25,000 158 410 -64
2018-11-18 19:50:35 GMT 57.264084 12.635307 25,000 158 411 0
2018-11-18 19:50:32 GMT 57.272846 12.628784 25,000 158 411 0
2018-11-18 19:50:29 GMT 57.277451 12.625351 25,000 157 411 -64
2018-11-18 19:50:25 GMT 57.282715 12.621430 25,000 158 411 0
2018-11-18 19:50:21 GMT 57.294865 12.613191 25,000 161 413 0
2018-11-18 19:50:18 GMT 57.294865 12.613191 25,000 167 415 0
2018-11-18 19:50:14 GMT 57.302826 12.608406 25,000 163 414 -64
2018-11-18 19:50:11 GMT 57.307247 12.606014 25,000 164 414 0
2018-11-18 19:50:08 GMT 57.313522 12.602949 25,000 165 415 -64
2018-11-18 19:50:04 GMT 57.321354 12.599458 25,000 168 415 0
2018-11-18 19:50:00 GMT 57.330002 12.595997 25,000 168 415 0
2018-11-18 19:49:57 GMT 57.334110 12.594496 25,000 169 416 0
2018-11-18 19:49:50 GMT 57.346573 12.590332 25,000 170 416 -192
2018-11-18 19:49:47 GMT 57.354950 12.588186 25,000 174 417 64
2018-11-18 19:49:43 GMT 57.359943 12.587408 25,000 179 420 0
2018-11-18 19:49:39 GMT 57.370792 12.586965 25,000 181 420 0
2018-11-18 19:49:36 GMT 57.373489 12.586985 25,000 181 420 0
2018-11-18 19:49:33 GMT 57.380100 12.587054 25,000 181 419 0
2018-11-18 19:49:27 GMT 57.392075 12.587070 25,000 181 418 0
2018-11-18 19:49:23 GMT 57.399376 12.587142 25,000 181 418 0
2018-11-18 19:49:19 GMT 57.406723 12.587156 25,000 181 417 128
2018-11-18 19:49:16 GMT 57.434055 12.587320 25,000 181 417 64
2018-11-18 19:49:05 GMT 57.434055 12.587320 25,000 181 418 -64
2018-11-18 19:48:57 GMT 57.449890 12.587328 25,000 180 419 -64
2018-11-18 19:48:54 GMT 57.454514 12.587328 25,000 180 419 -64
2018-11-18 19:48:47 GMT 57.468830 12.587320 24,975 180 421 -128
2018-11-18 19:48:44 GMT 57.474277 12.587320 24,975 180 421 -128
2018-11-18 19:48:41 GMT 57.479675 12.587320 25,000 180 420 -832
2018-11-18 19:48:34 GMT 57.494434 12.587320 25,100 180 420 -1024
2018-11-18 19:48:31 GMT 57.499466 12.587328 25,150 180 420 -1024
2018-11-18 19:48:24 GMT 57.514938 12.587328 25,275 181 421 -960
2018-11-18 19:48:18 GMT 57.524277 12.587414 25,350 181 421 -960
2018-11-18 19:48:13 GMT 57.534794 12.587585 25,450 181 423 -960
2018-11-18 19:48:10 GMT 57.539841 12.587671 25,500 181 423 -1088
2018-11-18 19:48:03 GMT 57.555138 12.588028 25,625 182 426 -1024
2018-11-18 19:48:00 GMT 57.561424 12.588294 25,675 182 428 -960
2018-11-18 19:47:55 GMT 57.570557 12.588787 25,800 182 434 -1216
2018-11-18 19:47:52 GMT 57.575760 12.589092 25,800 182 434 -1216
2018-11-18 19:47:49 GMT 57.581394 12.589535 25,875 183 439 -2112
2018-11-18 19:47:45 GMT 57.592300 12.590332 26,125 183 441 -1984
2018-11-18 19:47:42 GMT 57.596375 12.590675 26,350 183 449 -2112
2018-11-18 19:47:39 GMT 57.605347 12.591448 26,275 183 443 -2048
2018-11-18 19:47:32 GMT 57.616837 12.592392 26,450 183 447 -1984
2018-11-18 19:47:28 GMT 57.623802 12.592990 26,575 183 448 -1984
2018-11-18 19:47:25 GMT 57.638306 12.594194 26,750 183 450 -2176
2018-11-18 19:47:22 GMT 57.645405 12.594762 26,950 183 451 -2432
2018-11-18 19:47:18 GMT 57.645405 12.594762 27,000 182 495 -896
2018-11-18 19:47:13 GMT 57.655411 12.595559 27,250 183 454 -2176
2018-11-18 19:47:10 GMT 57.668427 12.596426 27,325 182 463 -1088
2018-11-18 19:47:07 GMT 57.668427 12.596426 27,375 183 456 -2048
2018-11-18 19:47:04 GMT 57.675568 12.596977 27,825 182 458 -3008
2018-11-18 19:47:01 GMT 57.681061 12.597284 27,600 182 458 -2688
2018-11-18 19:46:57 GMT 57.689953 12.597863 27,775 182 459 -3072
2018-11-18 19:46:54 GMT 57.703079 12.598572 28,150 182 460 -2496
2018-11-18 19:46:51 GMT 57.709457 12.598926 28,250 182 463 -1088
2018-11-18 19:46:48 GMT 57.720154 12.599516 28,250 182 464 -1088
2018-11-18 19:46:43 GMT 57.720154 12.599516 28,325 182 475 -1024
2018-11-18 19:46:40 GMT 57.728359 12.599945 28,350 182 471 -1024
2018-11-18 19:46:36 GMT 57.734459 12.600311 28,375 182 475 -1024
2018-11-18 19:46:32 GMT 57.742813 12.600698 28,450 182 479 -896
2018-11-18 19:46:28 GMT 57.753479 12.601318 28,525 182 486 -704
2018-11-18 19:46:22 GMT 57.766068 12.601939 28,575 182 492 -832
2018-11-18 19:46:18 GMT 57.777969 12.602559 28,675 182 499 -1152
2018-11-18 19:46:13 GMT 57.789047 12.603268 28,800 183 505 -2240
2018-11-18 19:46:10 GMT 57.796047 12.603699 28,900 183 506 -3328
2018-11-18 19:46:06 GMT 57.802094 12.604154 29,075 183 507 -3968
2018-11-18 19:45:59 GMT 57.819809 12.605217 29,725 182 504 -5568
2018-11-18 19:45:56 GMT 57.826309 12.605571 30,000 182 502 -5696
2018-11-18 19:45:52 GMT 57.837898 12.606262 30,500 182 501 -6080
2018-11-18 19:45:49 GMT 57.842972 12.606457 30,725 182 500 -6144
2018-11-18 19:45:46 GMT 57.848511 12.606812 38,125 182 500 -6144
2018-11-18 19:45:41 GMT 57.860939 12.607452 31,525 182 499 -5888
2018-11-18 19:45:38 GMT 57.867413 12.607819 31,825 182 499 -5888
2018-11-18 19:45:34 GMT 57.877514 12.608276 32,250 182 497 -6016
2018-11-18 19:45:28 GMT 57.890808 12.608849 32,875 182 496 -5760
2018-11-18 19:45:25 GMT 57.899002 12.609204 33,175 182 495 -5760
2018-11-18 19:45:22 GMT 57.903580 12.609470 33,375 182 493 -5504
2018-11-18 19:45:19 GMT 57.911774 12.609824 33,825 182 494 -5440
2018-11-18 19:45:16 GMT 57.919968 12.610178 34,275 182 493 -5568
2018-11-18 19:45:10 GMT 57.930908 12.610798 34,575 182 492 -5376
2018-11-18 19:45:07 GMT 57.939056 12.611241 34,800 182 491 -5312
2018-11-18 19:45:04 GMT 57.946735 12.611664 41,000 182 491 -4544
2018-11-18 19:45:00 GMT 57.954437 12.612127 35,525 182 491 -4672
2018-11-18 19:44:57 GMT 57.962147 12.612579 35,625 182 490 -4864
2018-11-18 19:44:53 GMT 57.970688 12.613102 35,975 182 488 -5504
2018-11-18 19:44:50 GMT 57.978344 12.613586 36,300 183 486 -5504
2018-11-18 19:44:47 GMT 57.985516 12.614044 36,600 183 485 -5504
2018-11-18 19:44:43 GMT 57.994904 12.614697 41,000 183 484 -5504
2018-11-18 19:44:39 GMT 58.001530 12.615051 37,275 182 480 -5632
2018-11-18 19:44:34 GMT 58.012527 12.614785 37,750 176 472 -5632
2018-11-18 19:44:29 GMT 58.023697 12.612570 38,825 163 453 -5056
2018-11-18 19:44:26 GMT 58.030762 12.609924 38,825 163 453 -5056
2018-11-18 19:44:22 GMT 58.038815 12.605713 38,925 161 450 -4672
2018-11-18 19:44:18 GMT 58.044357 12.602234 39,125 161 449 -4160
2018-11-18 19:44:13 GMT 58.055298 12.595093 39,475 160 448 -2816
2018-11-18 19:44:09 GMT 58.064255 12.589180 39,675 160 448 -2560
2018-11-18 19:44:03 GMT 58.076706 12.580675 39,975 159 448 -3008
2018-11-18 19:43:58 GMT 58.084488 12.575359 40,150 159 448 -2432
2018-11-18 19:43:54 GMT 58.091839 12.570190 40,475 159 448 -2176
2018-11-18 19:43:49 GMT 58.101562 12.563575 40,550 160 447 -1920
2018-11-18 19:43:45 GMT 58.109299 12.558259 40,725 160 446 -1920
2018-11-18 19:43:42 GMT 58.115116 12.554260 40,725 160 445 -1920
2018-11-18 19:43:37 GMT 58.124378 12.547943 40,875 160 444 -1664
2018-11-18 19:43:34 GMT 58.131683 12.542931 40,950 160 443 -960
2018-11-18 19:43:27 GMT 58.144348 12.534210 41,000 160 442 0
2018-11-18 19:43:24 GMT 58.163574 12.521118 41,000 160 443 0
2018-11-18 19:43:17 GMT 58.163574 12.521118 41,000 160 443 0
2018-11-18 19:43:12 GMT 58.183136 12.507757 41,000 160 443 0
2018-11-18 19:43:07 GMT 58.183136 12.507757 41,000 160 443 0
2018-11-18 19:43:04 GMT 58.189316 12.503593 41,000 160 443 0
2018-11-18 19:43:01 GMT 58.193893 12.500404 41,000 160 443 -64
2018-11-18 19:42:56 GMT 58.203918 12.493581 41,000 160 443 0
2018-11-18 19:42:51 GMT 58.215855 12.485413 41,000 160 443 0
2018-11-18 19:42:46 GMT 58.223537 12.480194 41,000 160 443 0
2018-11-18 19:42:40 GMT 58.235081 12.472229 41,000 160 444 0
2018-11-18 19:42:35 GMT 58.245090 12.465363 41,000 160 445 0
2018-11-18 19:42:32 GMT 58.250107 12.461951 41,000 160 444 0
2018-11-18 19:42:28 GMT 58.258217 12.456390 41,000 160 445 0
2018-11-18 19:42:25 GMT 58.263618 12.452637 41,000 160 445 0
2018-11-18 19:42:22 GMT 58.269760 12.448425 41,000 160 445 0
2018-11-18 19:42:15 GMT 58.283680 12.438812 41,000 160 446 0
2018-11-18 19:42:11 GMT 58.292992 12.432404 41,000 160 446 0
2018-11-18 19:42:07 GMT 58.297989 12.428992 41,000 160 446 0
2018-11-18 19:42:04 GMT 58.303436 12.425271 41,000 160 446 0
2018-11-18 19:42:00 GMT 58.312309 12.419128 41,000 160 447 0
2018-11-18 19:41:55 GMT 58.322800 12.411981 41,000 160 447 -64
2018-11-18 19:41:50 GMT 58.342571 12.398346 41,000 160 447 0
2018-11-18 19:41:44 GMT 58.342571 12.398346 41,000 160 447 0
2018-11-18 19:41:41 GMT 58.349213 12.393819 41,000 160 447 0
2018-11-18 19:41:34 GMT 58.362774 12.384521 41,000 160 447 0
2018-11-18 19:41:30 GMT 58.369755 12.379669 41,000 160 447 -64
2018-11-18 19:41:26 GMT 58.378323 12.373810 41,000 160 447 -64
2018-11-18 19:41:23 GMT 58.382977 12.370605 41,000 160 447 0
2018-11-18 19:41:19 GMT 58.392288 12.364105 41,000 160 447 0
2018-11-18 19:41:16 GMT 58.397736 12.360352 41,000 160 447 0
2018-11-18 19:41:13 GMT 58.402771 12.356873 41,000 160 447 0
2018-11-18 19:41:10 GMT 58.409370 12.352295 41,000 160 447 -64
2018-11-18 19:41:07 GMT 58.415222 12.348278 41,000 160 447 -64
2018-11-18 19:41:03 GMT 58.422958 12.342874 41,000 160 447 -64
2018-11-18 19:40:58 GMT 58.433075 12.335874 41,000 160 447 0
2018-11-18 19:40:53 GMT 58.443146 12.328875 41,000 160 447 64
2018-11-18 19:40:48 GMT 58.452061 12.322723 41,000 160 447 0
2018-11-18 19:40:45 GMT 58.457508 12.318970 41,000 160 448 0
2018-11-18 19:40:42 GMT 58.463333 12.314965 41,000 160 448 0
2018-11-18 19:40:37 GMT 58.472263 12.308807 41,000 160 448 -64
2018-11-18 19:40:32 GMT 58.482788 12.301498 41,000 159 448 0
2018-11-18 19:40:28 GMT 58.493637 12.293878 41,000 159 448 0
2018-11-18 19:40:25 GMT 58.496750 12.291752 41,000 159 448 0
2018-11-18 19:40:22 GMT 58.502571 12.287659 41,000 159 448 0
2018-11-18 19:40:17 GMT 58.511879 12.281067 41,000 159 448 0
2018-11-18 19:40:12 GMT 58.522728 12.273468 41,000 159 448 0
2018-11-18 19:40:07 GMT 58.531677 12.267210 41,000 159 448 -64
2018-11-18 19:40:04 GMT 58.537483 12.263123 41,000 159 448 -64
2018-11-18 19:40:00 GMT 58.544861 12.257996 41,000 159 449 -64
2018-11-18 19:39:57 GMT 58.552242 12.252777 41,000 160 448 -64
2018-11-18 19:39:54 GMT 58.556896 12.249573 41,000 159 449 0
2018-11-18 19:39:51 GMT 58.562759 12.245503 41,000 160 448 0
2018-11-18 19:39:47 GMT 58.575989 12.236289 41,000 160 448 -64
2018-11-18 19:39:40 GMT 58.582993 12.231416 41,000 159 449 0
2018-11-18 19:39:34 GMT 58.595814 12.222473 41,000 159 449 0
2018-11-18 19:39:29 GMT 58.604736 12.216177 41,000 159 449 64
2018-11-18 19:39:26 GMT 58.612152 12.211029 41,000 159 449 0
2018-11-18 19:39:23 GMT 58.616810 12.207733 41,000 159 449 0
2018-11-18 19:39:19 GMT 58.623791 12.202789 41,000 159 449 -64
2018-11-18 19:39:14 GMT 58.635864 12.194293 41,000 159 449 0
2018-11-18 19:39:08 GMT 58.647537 12.186141 41,000 159 449 0
2018-11-18 19:39:05 GMT 58.652206 12.182863 41,000 159 450 0
2018-11-18 19:39:01 GMT 58.659210 12.177990 41,000 159 450 0
2018-11-18 19:38:58 GMT 58.665085 12.173859 41,000 159 450 0
2018-11-18 19:38:55 GMT 58.672485 12.168687 41,000 159 450 0
2018-11-18 19:38:52 GMT 58.676769 12.165619 41,000 159 450 64
2018-11-18 19:38:49 GMT 58.683006 12.161224 41,000 159 450 64
2018-11-18 19:38:46 GMT 58.689243 12.156830 41,000 159 450 0
2018-11-18 19:38:43 GMT 58.695480 12.152435 41,000 159 450 -64
2018-11-18 19:38:38 GMT 58.704437 12.146183 41,000 159 451 -64
2018-11-18 19:38:35 GMT 58.710331 12.142090 41,000 159 451 0
2018-11-18 19:38:32 GMT 58.716572 12.137695 41,000 159 451 0
2018-11-18 19:38:29 GMT 58.722809 12.133209 41,000 159 451 0
2018-11-18 19:38:23 GMT 58.736076 12.123871 41,000 159 450 0
2018-11-18 19:38:18 GMT 58.743484 12.118629 41,000 159 450 -64
2018-11-18 19:38:15 GMT 58.749344 12.114441 41,000 159 450 -64
2018-11-18 19:38:12 GMT 58.755981 12.109769 41,000 159 450 0
2018-11-18 19:38:08 GMT 58.763763 12.104187 41,000 159 450 0
2018-11-18 19:38:05 GMT 58.771591 12.098694 41,000 159 450 0
2018-11-18 19:38:02 GMT 58.775482 12.095859 41,000 159 450 -64
2018-11-18 19:37:57 GMT 58.784866 12.089214 41,000 159 450 -128
2018-11-18 19:37:54 GMT 58.790314 12.085315 41,000 159 451 -64
2018-11-18 19:37:51 GMT 58.795383 12.081757 41,000 159 451 0
2018-11-18 19:37:47 GMT 58.803947 12.075623 41,000 159 451 64
2018-11-18 19:37:44 GMT 58.810234 12.071136 41,000 159 452 64
2018-11-18 19:37:41 GMT 58.817215 12.066101 41,000 159 452 64
2018-11-18 19:37:37 GMT 58.823868 12.061393 41,000 159 452 0
2018-11-18 19:37:32 GMT 58.836769 12.052185 41,000 159 452 -128
2018-11-18 19:37:26 GMT 58.844589 12.046509 41,000 159 452 -64
2018-11-18 19:37:23 GMT 58.851620 12.041489 41,000 159 452 0
2018-11-18 19:37:19 GMT 58.858246 12.036804 41,000 159 452 0
2018-11-18 19:37:16 GMT 58.865295 12.031769 41,000 159 453 0
2018-11-18 19:37:11 GMT 58.875458 12.024536 41,000 159 453 0
2018-11-18 19:37:08 GMT 58.879395 12.021698 41,000 159 453 0
2018-11-18 19:37:03 GMT 58.891159 12.013275 41,000 159 453 -128
2018-11-18 19:36:59 GMT 58.898590 12.007962 41,000 159 454 -64
2018-11-18 19:36:56 GMT 58.905666 12.002942 41,000 159 454 0
2018-11-18 19:36:52 GMT 58.913132 11.997711 41,000 159 454 0
2018-11-18 19:36:48 GMT 58.919403 11.993225 41,000 159 454 0
2018-11-18 19:36:45 GMT 58.925312 11.989020 41,000 159 455 0
2018-11-18 19:36:41 GMT 58.934372 11.982605 41,000 159 455 0
2018-11-18 19:36:37 GMT 58.941837 11.977276 41,000 159 455 -64
2018-11-18 19:36:34 GMT 58.946587 11.973961 41,000 159 457 0
2018-11-18 19:36:31 GMT 58.952126 11.970078 41,000 159 456 -64
2018-11-18 19:36:28 GMT 58.959641 11.964752 41,000 159 456 0
2018-11-18 19:36:25 GMT 58.965530 11.960512 41,000 159 457 -64
2018-11-18 19:36:22 GMT 58.973053 11.955139 41,000 159 457 -64
2018-11-18 19:36:18 GMT 58.979778 11.950378 41,000 159 457 -64
2018-11-18 19:36:15 GMT 58.986900 11.945264 41,000 159 457 0
2018-11-18 19:36:11 GMT 58.992439 11.941286 41,000 159 458 0
2018-11-18 19:36:07 GMT 59.000401 11.935604 41,000 159 458 -128
2018-11-18 19:36:00 GMT 59.015808 11.924561 41,025 159 457 192
2018-11-18 19:35:57 GMT 59.020523 11.921173 41,000 159 456 320
2018-11-18 19:35:50 GMT 59.035080 11.910695 40,875 159 454 1024
2018-11-18 19:35:46 GMT 59.041763 11.905884 40,825 159 453 704
2018-11-18 19:35:39 GMT 59.057419 11.894623 40,750 159 450 832
2018-11-18 19:35:35 GMT 59.062088 11.891327 40,700 159 448 1088
2018-11-18 19:35:32 GMT 59.067902 11.887112 40,650 159 448 1152
2018-11-18 19:35:28 GMT 59.076420 11.880956 40,550 159 448 1216
2018-11-18 19:35:22 GMT 59.096146 11.866699 40,400 159 447 1152
2018-11-18 19:35:19 GMT 59.096146 11.866699 40,350 159 447 1216
2018-11-18 19:35:15 GMT 59.109657 11.856995 40,225 159 445 1280
2018-11-18 19:35:11 GMT 59.117752 11.851135 40,125 159 444 1344
2018-11-18 19:35:08 GMT 59.117752 11.851135 40,125 159 444 1344
2018-11-18 19:35:03 GMT 59.130798 11.841705 39,950 159 451 2432
2018-11-18 19:35:00 GMT 59.130798 11.841705 39,925 159 444 1792
2018-11-18 19:34:57 GMT 59.136200 11.837769 39,850 159 444 1920
2018-11-18 19:34:52 GMT 59.148514 11.828888 39,625 159 446 1728
2018-11-18 19:34:48 GMT 59.155045 11.824130 39,525 159 446 1856
2018-11-18 19:34:44 GMT 59.161606 11.819366 39,425 159 446 1984
2018-11-18 19:34:37 GMT 59.175110 11.809545 39,175 159 447 1984
2018-11-18 19:34:34 GMT 59.181702 11.804810 39,050 159 447 2048
2018-11-18 19:34:30 GMT 59.187881 11.800232 38,925 159 448 2304
2018-11-18 19:34:27 GMT 59.195618 11.794556 38,775 159 448 2496
2018-11-18 19:34:24 GMT 59.201065 11.790619 38,650 159 450 2432
2018-11-18 19:34:21 GMT 59.208443 11.785110 38,500 159 451 2432
2018-11-18 19:34:17 GMT 59.216629 11.779175 38,300 159 452 2432
2018-11-18 19:34:13 GMT 59.222122 11.775146 38,200 159 453 2368
2018-11-18 19:34:08 GMT 59.231506 11.768188 37,700 159 455 1856
2018-11-18 19:34:03 GMT 59.241714 11.760681 37,800 159 455 1984
2018-11-18 19:33:58 GMT 59.250710 11.754045 37,650 159 455 1664
2018-11-18 19:33:53 GMT 59.262863 11.745026 37,475 159 454 1600
2018-11-18 19:33:48 GMT 59.271103 11.738892 37,225 160 454 1792
2018-11-18 19:33:42 GMT 59.283234 11.730011 37,175 159 454 1728
2018-11-18 19:33:38 GMT 59.291538 11.724306 37,050 161 456 1856
2018-11-18 19:33:32 GMT 59.302757 11.717392 36,875 163 456 1856
2018-11-18 19:33:27 GMT 59.312897 11.711884 36,725 165 457 1792
2018-11-18 19:33:22 GMT 59.332718 11.703186 36,425 169 459 1984
2018-11-18 19:33:17 GMT 59.332718 11.703186 36,425 169 460 1920
2018-11-18 19:33:11 GMT 59.345215 11.698883 36,225 170 459 1984
2018-11-18 19:33:06 GMT 59.355240 11.695587 36,050 170 459 2176
2018-11-18 19:33:01 GMT 59.367371 11.691537 35,850 170 459 2112
2018-11-18 19:32:57 GMT 59.375702 11.688790 35,700 170 458 2176
2018-11-18 19:32:50 GMT 59.389435 11.684143 35,450 170 458 2432
2018-11-18 19:32:46 GMT 59.398636 11.681030 35,275 170 459 2240
2018-11-18 19:32:40 GMT 59.410755 11.676951 35,075 170 459 1536
2018-11-18 19:32:37 GMT 59.416992 11.674896 34,950 170 458 576
2018-11-18 19:32:30 GMT 59.431183 11.670135 34,925 170 457 704
2018-11-18 19:32:26 GMT 59.439060 11.667480 34,825 170 457 1152
2018-11-18 19:32:20 GMT 59.452789 11.662811 34,725 170 456 1920
2018-11-18 19:32:13 GMT 59.465641 11.658483 34,350 170 456 2432
2018-11-18 19:32:09 GMT 59.475220 11.655212 34,275 170 457 3008
2018-11-18 19:32:04 GMT 59.487289 11.651190 33,975 170 458 3072
2018-11-18 19:31:59 GMT 59.496460 11.648065 33,750 170 459 3200
2018-11-18 19:31:54 GMT 59.506516 11.644655 33,475 170 460 3200
2018-11-18 19:31:48 GMT 59.517838 11.640839 33,175 170 462 3328
2018-11-18 19:31:44 GMT 59.527084 11.637726 32,925 170 463 3328
2018-11-18 19:31:39 GMT 59.539288 11.633574 32,600 170 465 3264
2018-11-18 19:31:34 GMT 59.549484 11.630165 32,350 170 466 2688
2018-11-18 19:31:28 GMT 59.561306 11.626187 32,125 170 465 2304
2018-11-18 19:31:23 GMT 59.571457 11.622777 31,950 170 464 2304
2018-11-18 19:31:17 GMT 59.582886 11.618866 31,750 170 463 2304
2018-11-18 19:31:08 GMT 59.604321 11.611602 31,325 170 461 2432
2018-11-18 19:31:03 GMT 59.613491 11.608476 31,150 170 459 2432
2018-11-18 19:30:56 GMT 59.627735 11.603741 30,875 170 458 2368
2018-11-18 19:30:52 GMT 59.637314 11.600464 30,700 170 457 2432
2018-11-18 19:30:47 GMT 59.647247 11.597076 30,500 170 456 2560
2018-11-18 19:30:43 GMT 59.655533 11.594238 30,325 170 454 2496
2018-11-18 19:30:36 GMT 59.669586 11.589478 30,050 170 453 2496
2018-11-18 19:30:33 GMT 59.677826 11.586731 29,875 170 452 2560
2018-11-18 19:30:25 GMT 59.691788 11.581970 29,600 170 450 2496
2018-11-18 19:30:22 GMT 59.698730 11.579590 29,450 170 449 2560
2018-11-18 19:30:15 GMT 59.720749 11.572108 28,925 170 446 2496
2018-11-18 19:30:11 GMT 59.720749 11.572108 29,000 170 445 2496
2018-11-18 19:30:05 GMT 59.733688 11.567751 28,725 170 443 2560
2018-11-18 19:30:00 GMT 59.744568 11.564026 28,500 170 442 2560
2018-11-18 19:29:54 GMT 59.754181 11.560730 28,275 170 440 2624
2018-11-18 19:29:50 GMT 59.762554 11.557807 28,100 170 438 2688
2018-11-18 19:29:44 GMT 59.774517 11.553734 27,825 170 436 2624
2018-11-18 19:29:40 GMT 59.782013 11.551117 27,675 170 435 2688
2018-11-18 19:29:34 GMT 59.795048 11.546726 27,375 170 433 2752
2018-11-18 19:29:29 GMT 59.805634 11.543060 27,150 170 431 2560
2018-11-18 19:29:23 GMT 59.815388 11.539717 26,900 170 428 2880
2018-11-18 19:29:20 GMT 59.822021 11.537476 26,750 170 427 2816
2018-11-18 19:29:13 GMT 59.835938 11.532806 26,425 170 424 2880
2018-11-18 19:29:08 GMT 59.847137 11.528920 26,125 170 423 2944
2018-11-18 19:29:03 GMT 59.866653 11.522278 25,625 170 418 2880
2018-11-18 19:28:57 GMT 59.866653 11.522278 25,650 170 419 2816
2018-11-18 19:28:52 GMT 59.876141 11.519070 24,275 167 405 3392
2018-11-18 19:28:48 GMT 59.883682 11.516418 25,200 170 415 3072
2018-11-18 19:28:41 GMT 59.895741 11.512346 24,275 167 405 3392
2018-11-18 19:28:36 GMT 59.907749 11.508273 24,575 170 410 3072
2018-11-18 19:28:32 GMT 59.912964 11.506474 24,425 169 408 3264
2018-11-18 19:28:29 GMT 59.918129 11.504580 24,275 167 405 3392
2018-11-18 19:28:19 GMT 59.936287 11.496056 23,725 165 402 3264
2018-11-18 19:28:14 GMT 59.946533 11.489960 23,375 162 398 3840
2018-11-18 19:28:11 GMT 59.950699 11.487213 23,225 160 397 3648
2018-11-18 19:28:00 GMT 59.969433 11.473160 22,600 158 392 3520
2018-11-18 19:27:51 GMT 59.986237 11.460212 22,000 158 389 3520
2018-11-18 19:27:40 GMT 60.003250 11.447091 21,375 158 386 3968
2018-11-18 19:27:30 GMT 60.020172 11.434021 20,750 158 382 3520
2018-11-18 19:27:18 GMT 60.041473 11.417542 20,125 158 379 3648
2018-11-18 19:27:08 GMT 60.066307 11.398217 19,375 158 374 3648
2018-11-18 19:27:01 GMT 60.066307 11.398217 19,025 158 370 3840
2018-11-18 19:26:58 GMT 60.070774 11.394784 18,850 158 370 3776
2018-11-18 19:26:49 GMT 60.087208 11.381934 18,175 158 366 4096
2018-11-18 19:26:41 GMT 60.097870 11.373596 17,700 158 364 4160
2018-11-18 19:26:38 GMT 60.103821 11.368955 17,450 158 363 4224
2018-11-18 19:26:31 GMT 60.114071 11.360844 17,000 158 360 4096
2018-11-18 19:26:27 GMT 60.119339 11.356738 16,775 158 359 3648
2018-11-18 19:26:22 GMT 60.129181 11.349066 16,375 158 356 3840
2018-11-18 19:26:17 GMT 60.135017 11.344463 16,125 158 354 3904
2018-11-18 19:26:11 GMT 60.145020 11.336565 15,700 158 351 4224
2018-11-18 19:26:07 GMT 60.151062 11.331829 15,400 158 350 4416
2018-11-18 19:26:00 GMT 60.160675 11.324252 14,925 158 348 4480
2018-11-18 19:25:56 GMT 60.166626 11.319612 14,650 158 348 4352
2018-11-18 19:25:50 GMT 60.175892 11.312289 14,225 158 345 3648
2018-11-18 19:25:47 GMT 60.182053 11.307299 13,975 158 342 4352
2018-11-18 19:25:40 GMT 60.191158 11.300125 13,525 158 341 4032
2018-11-18 19:25:36 GMT 60.197296 11.295177 13,275 158 339 3776
2018-11-18 19:25:30 GMT 60.205994 11.288263 12,875 158 337 4096
2018-11-18 19:25:26 GMT 60.212311 11.283148 12,575 158 334 4160
2018-11-18 19:25:19 GMT 60.220871 11.276329 12,175 158 332 3648
2018-11-18 19:25:15 GMT 60.226864 11.271482 11,925 158 329 3584
2018-11-18 19:25:09 GMT 60.235847 11.264223 11,525 158 326 3648
2018-11-18 19:25:04 GMT 60.241699 11.259471 11,275 158 323 3712
2018-11-18 19:24:59 GMT 60.249119 11.253433 10,975 157 320 3008
2018-11-18 19:24:54 GMT 60.255680 11.248136 10,750 157 315 2816
2018-11-18 19:24:48 GMT 60.263687 11.241564 10,450 157 309 2944
2018-11-18 19:24:44 GMT 60.269165 11.237025 10,250 157 303 3392
2018-11-18 19:24:39 GMT 60.276398 11.231153 9,900 157 300 4096
2018-11-18 19:24:33 GMT 60.283035 11.225754 9,625 158 296 1920
2018-11-18 19:24:29 GMT 60.289337 11.220670 9,450 158 287 1792
2018-11-18 19:24:22 GMT 60.296768 11.214294 9,275 154 276 1664
2018-11-18 19:24:18 GMT 60.300976 11.209880 9,175 150 266 1984
2018-11-18 19:24:13 GMT 60.306793 11.202818 8,975 147 257 2496
2018-11-18 19:24:08 GMT 60.311401 11.196540 8,750 142 248 3456
2018-11-18 19:24:02 GMT 60.316040 11.188439 8,400 131 242 5120
2018-11-18 19:23:57 GMT 60.319641 11.178589 7,925 117 245 4800
2018-11-18 19:23:52 GMT 60.321671 11.168076 7,550 103 246 4480
2018-11-18 19:23:48 GMT 60.322437 11.157695 7,200 89 247 4800
2018-11-18 19:23:42 GMT 60.321671 11.144493 6,750 72 249 4480
2018-11-18 19:23:37 GMT 60.319931 11.135022 6,425 62 250 4224
2018-11-18 19:23:31 GMT 60.316196 11.123952 6,025 45 250 3904
2018-11-18 19:23:27 GMT 60.312008 11.116693 5,725 31 250 3712
2018-11-18 19:23:21 GMT 60.306519 11.110777 5,375 20 251 3968
2018-11-18 19:23:17 GMT 60.301666 11.107746 5,075 10 250 3904
2018-11-18 19:23:10 GMT 60.293381 11.106231 4,625 356 250 3712
2018-11-18 19:23:06 GMT 60.289261 11.106894 4,375 353 250 3648
2018-11-18 19:23:00 GMT 60.282440 11.108883 4,075 352 246 2560

Making use of Plane Finder data

You are free to use the raw flight data, aircraft information and images provided in this report for your own purposes provided the data is correctly attributed to Plane Finder. We ask that you please credit Plane Finder and link to planefinder.net in close proximity to the content.

Optionally one of the following logos (no smaller then 150x24px) can be used and must link to planefinder.net

Embedding the Plane Finder map

You are welcome to embed the Plane Finder playback map on your website to offer visitors a more interactive experience. We suggest using the following HTML code:

<iframe src="//planefinder.net/data/report/SK9127-SE-REX-7700-squawk-2018-11-18/map" width="800" height="600" seamless="seamless"></iframe>

Where our data comes from

Plane Finder has a global network of data feeds and antenna radars that receive data broadcast directly from aircraft. The primary technologies used are ADS-B and MLAT. We also show feeds from the FAA and a FLARM glider feed.

Click here to find out more about the Plane Finder network.

How we collect our data